<?xml version="1.0" encoding="UTF-8" standalone="no" ?>
<gpx xmlns="http://www.topografix.com/GPX/1/1" xmlns:xsi="http://www.w3.org/2001/XMLSchema-instance" xsi:schemaLocation="http://www.topografix.com/GPX/1/1 http://www.topografix.com/GPX/1/1/gpx.xsd" version="1.1" creator="VisuGPX - https://www.visugpx.com">
  <metadata>
    <name>044SG73-8136351</name>
    <desc><![CDATA[12-19]]></desc>
  </metadata>
  <trk>
    <name><![CDATA[044SG73-8136351]]></name>
    <trkseg>
      <trkpt lat="46.69865" lon="-1.93393">
        <ele>5</ele>
        <time>2018-04-22T21:14:55Z</time>
      </trkpt>
      <trkpt lat="46.69899" lon="-1.93381">
        <ele>5</ele>
        <time>2018-04-22T21:15:55Z</time>
      </trkpt>
      <trkpt lat="46.69906" lon="-1.93381">
        <ele>5</ele>
        <time>2018-04-22T21:16:55Z</time>
      </trkpt>
      <trkpt lat="46.6991" lon="-1.93375">
        <ele>5</ele>
        <time>2018-04-22T21:17:55Z</time>
      </trkpt>
      <trkpt lat="46.69915" lon="-1.93379">
        <ele>4</ele>
        <time>2018-04-22T21:18:55Z</time>
      </trkpt>
      <trkpt lat="46.69915" lon="-1.93381">
        <ele>4</ele>
        <time>2018-04-22T21:19:55Z</time>
      </trkpt>
      <trkpt lat="46.6994" lon="-1.9338">
        <ele>4</ele>
        <time>2018-04-22T21:20:55Z</time>
      </trkpt>
      <trkpt lat="46.69955" lon="-1.93377">
        <ele>4</ele>
        <time>2018-04-22T21:21:55Z</time>
      </trkpt>
      <trkpt lat="46.69973" lon="-1.93368">
        <ele>4</ele>
        <time>2018-04-22T21:22:55Z</time>
      </trkpt>
      <trkpt lat="46.69981" lon="-1.93367">
        <ele>3</ele>
        <time>2018-04-22T21:23:55Z</time>
      </trkpt>
      <trkpt lat="46.70018" lon="-1.93384">
        <ele>3</ele>
        <time>2018-04-22T21:24:55Z</time>
      </trkpt>
      <trkpt lat="46.70026" lon="-1.93389">
        <ele>3</ele>
        <time>2018-04-22T21:25:55Z</time>
      </trkpt>
      <trkpt lat="46.70036" lon="-1.934">
        <ele>2</ele>
        <time>2018-04-22T21:26:55Z</time>
      </trkpt>
      <trkpt lat="46.7005" lon="-1.93406">
        <ele>2</ele>
        <time>2018-04-22T21:27:55Z</time>
      </trkpt>
      <trkpt lat="46.70057" lon="-1.93396">
        <ele>2</ele>
        <time>2018-04-22T21:28:55Z</time>
      </trkpt>
      <trkpt lat="46.70064" lon="-1.93406">
        <ele>2</ele>
        <time>2018-04-22T21:29:55Z</time>
      </trkpt>
      <trkpt lat="46.70086" lon="-1.93406">
        <ele>2</ele>
        <time>2018-04-22T21:30:55Z</time>
      </trkpt>
      <trkpt lat="46.70113" lon="-1.93385">
        <ele>2</ele>
        <time>2018-04-22T21:31:55Z</time>
      </trkpt>
      <trkpt lat="46.70116" lon="-1.93375">
        <ele>2</ele>
        <time>2018-04-22T21:32:55Z</time>
      </trkpt>
      <trkpt lat="46.70124" lon="-1.93369">
        <ele>1</ele>
        <time>2018-04-22T21:33:55Z</time>
      </trkpt>
      <trkpt lat="46.70131" lon="-1.93369">
        <ele>2</ele>
        <time>2018-04-22T21:34:55Z</time>
      </trkpt>
      <trkpt lat="46.70142" lon="-1.93375">
        <ele>1</ele>
        <time>2018-04-22T21:35:55Z</time>
      </trkpt>
      <trkpt lat="46.70164" lon="-1.93377">
        <ele>1</ele>
        <time>2018-04-22T21:36:55Z</time>
      </trkpt>
      <trkpt lat="46.70166" lon="-1.93367">
        <ele>2</ele>
        <time>2018-04-22T21:37:55Z</time>
      </trkpt>
      <trkpt lat="46.70176" lon="-1.93363">
        <ele>2</ele>
        <time>2018-04-22T21:38:55Z</time>
      </trkpt>
      <trkpt lat="46.70197" lon="-1.93346">
        <ele>2</ele>
        <time>2018-04-22T21:39:55Z</time>
      </trkpt>
      <trkpt lat="46.70203" lon="-1.93339">
        <ele>2</ele>
        <time>2018-04-22T21:40:55Z</time>
      </trkpt>
      <trkpt lat="46.70205" lon="-1.93345">
        <ele>1</ele>
        <time>2018-04-22T21:41:55Z</time>
      </trkpt>
      <trkpt lat="46.70215" lon="-1.93331">
        <ele>1</ele>
        <time>2018-04-22T21:42:55Z</time>
      </trkpt>
      <trkpt lat="46.70238" lon="-1.93293">
        <ele>2</ele>
        <time>2018-04-22T21:43:55Z</time>
      </trkpt>
      <trkpt lat="46.70253" lon="-1.93277">
        <ele>2</ele>
        <time>2018-04-22T21:44:55Z</time>
      </trkpt>
      <trkpt lat="46.70278" lon="-1.93262">
        <ele>2</ele>
        <time>2018-04-22T21:45:55Z</time>
      </trkpt>
      <trkpt lat="46.70298" lon="-1.93246">
        <ele>2</ele>
        <time>2018-04-22T21:46:55Z</time>
      </trkpt>
      <trkpt lat="46.70305" lon="-1.93235">
        <ele>2</ele>
        <time>2018-04-22T21:47:55Z</time>
      </trkpt>
      <trkpt lat="46.70308" lon="-1.93226">
        <ele>2</ele>
        <time>2018-04-22T21:48:55Z</time>
      </trkpt>
      <trkpt lat="46.70389" lon="-1.93248">
        <ele>3</ele>
        <time>2018-04-22T21:49:55Z</time>
      </trkpt>
      <trkpt lat="46.70432" lon="-1.93269">
        <ele>3</ele>
        <time>2018-04-22T21:50:55Z</time>
      </trkpt>
      <trkpt lat="46.70449" lon="-1.93272">
        <ele>3</ele>
        <time>2018-04-22T21:51:55Z</time>
      </trkpt>
      <trkpt lat="46.70471" lon="-1.9327">
        <ele>3</ele>
        <time>2018-04-22T21:52:55Z</time>
      </trkpt>
      <trkpt lat="46.7054" lon="-1.93222">
        <ele>5</ele>
        <time>2018-04-22T21:53:55Z</time>
      </trkpt>
      <trkpt lat="46.70562" lon="-1.93215">
        <ele>5</ele>
        <time>2018-04-22T21:54:55Z</time>
      </trkpt>
      <trkpt lat="46.70651" lon="-1.932">
        <ele>7</ele>
        <time>2018-04-22T21:55:55Z</time>
      </trkpt>
      <trkpt lat="46.70722" lon="-1.93216">
        <ele>8</ele>
        <time>2018-04-22T21:56:55Z</time>
      </trkpt>
      <trkpt lat="46.70749" lon="-1.93214">
        <ele>8</ele>
        <time>2018-04-22T21:57:55Z</time>
      </trkpt>
      <trkpt lat="46.70773" lon="-1.93201">
        <ele>8</ele>
        <time>2018-04-22T21:58:55Z</time>
      </trkpt>
      <trkpt lat="46.70811" lon="-1.93172">
        <ele>9</ele>
        <time>2018-04-22T21:59:55Z</time>
      </trkpt>
      <trkpt lat="46.70829" lon="-1.9317">
        <ele>9</ele>
        <time>2018-04-22T22:00:55Z</time>
      </trkpt>
      <trkpt lat="46.70957" lon="-1.93188">
        <ele>7</ele>
        <time>2018-04-22T22:01:55Z</time>
      </trkpt>
      <trkpt lat="46.71006" lon="-1.93182">
        <ele>7</ele>
        <time>2018-04-22T22:02:55Z</time>
      </trkpt>
      <trkpt lat="46.7103" lon="-1.93175">
        <ele>6</ele>
        <time>2018-04-22T22:03:55Z</time>
      </trkpt>
      <trkpt lat="46.71043" lon="-1.93165">
        <ele>7</ele>
        <time>2018-04-22T22:04:55Z</time>
      </trkpt>
      <trkpt lat="46.71142" lon="-1.9305">
        <ele>7</ele>
        <time>2018-04-22T22:05:55Z</time>
      </trkpt>
      <trkpt lat="46.71159" lon="-1.93036">
        <ele>8</ele>
        <time>2018-04-22T22:06:55Z</time>
      </trkpt>
      <trkpt lat="46.71172" lon="-1.93031">
        <ele>7</ele>
        <time>2018-04-22T22:07:55Z</time>
      </trkpt>
      <trkpt lat="46.71229" lon="-1.93029">
        <ele>5</ele>
        <time>2018-04-22T22:08:55Z</time>
      </trkpt>
      <trkpt lat="46.7124" lon="-1.93023">
        <ele>5</ele>
        <time>2018-04-22T22:09:55Z</time>
      </trkpt>
      <trkpt lat="46.71248" lon="-1.9301">
        <ele>5</ele>
        <time>2018-04-22T22:10:55Z</time>
      </trkpt>
      <trkpt lat="46.71252" lon="-1.92996">
        <ele>5</ele>
        <time>2018-04-22T22:11:55Z</time>
      </trkpt>
      <trkpt lat="46.71262" lon="-1.9294">
        <ele>4</ele>
        <time>2018-04-22T22:12:55Z</time>
      </trkpt>
      <trkpt lat="46.7127" lon="-1.92871">
        <ele>3</ele>
        <time>2018-04-22T22:13:55Z</time>
      </trkpt>
      <trkpt lat="46.71307" lon="-1.9269">
        <ele>6</ele>
        <time>2018-04-22T22:14:55Z</time>
      </trkpt>
      <trkpt lat="46.71304" lon="-1.9264">
        <ele>8</ele>
        <time>2018-04-22T22:15:55Z</time>
      </trkpt>
      <trkpt lat="46.71307" lon="-1.92619">
        <ele>8</ele>
        <time>2018-04-22T22:16:55Z</time>
      </trkpt>
      <trkpt lat="46.71331" lon="-1.92518">
        <ele>8</ele>
        <time>2018-04-22T22:17:55Z</time>
      </trkpt>
      <trkpt lat="46.71331" lon="-1.92518">
        <ele>8</ele>
        <time>2018-04-22T22:18:55Z</time>
      </trkpt>
      <trkpt lat="46.71332" lon="-1.92495">
        <ele>8</ele>
        <time>2018-04-22T22:19:55Z</time>
      </trkpt>
      <trkpt lat="46.71326" lon="-1.92419">
        <ele>9</ele>
        <time>2018-04-22T22:20:55Z</time>
      </trkpt>
      <trkpt lat="46.71319" lon="-1.92381">
        <ele>9</ele>
        <time>2018-04-22T22:21:55Z</time>
      </trkpt>
      <trkpt lat="46.7131" lon="-1.92355">
        <ele>9</ele>
        <time>2018-04-22T22:22:55Z</time>
      </trkpt>
      <trkpt lat="46.71347" lon="-1.92341">
        <ele>8</ele>
        <time>2018-04-22T22:23:55Z</time>
      </trkpt>
      <trkpt lat="46.71416" lon="-1.9232">
        <ele>5</ele>
        <time>2018-04-22T22:24:55Z</time>
      </trkpt>
      <trkpt lat="46.71425" lon="-1.92312">
        <ele>5</ele>
        <time>2018-04-22T22:25:55Z</time>
      </trkpt>
      <trkpt lat="46.71428" lon="-1.92303">
        <ele>5</ele>
        <time>2018-04-22T22:26:55Z</time>
      </trkpt>
      <trkpt lat="46.71474" lon="-1.92136">
        <ele>6</ele>
        <time>2018-04-22T22:27:55Z</time>
      </trkpt>
      <trkpt lat="46.71488" lon="-1.92069">
        <ele>6</ele>
        <time>2018-04-22T22:28:55Z</time>
      </trkpt>
      <trkpt lat="46.71515" lon="-1.919">
        <ele>8</ele>
        <time>2018-04-22T22:29:55Z</time>
      </trkpt>
      <trkpt lat="46.71537" lon="-1.91824">
        <ele>8</ele>
        <time>2018-04-22T22:30:55Z</time>
      </trkpt>
      <trkpt lat="46.71567" lon="-1.91742">
        <ele>7</ele>
        <time>2018-04-22T22:31:55Z</time>
      </trkpt>
      <trkpt lat="46.71629" lon="-1.91589">
        <ele>4</ele>
        <time>2018-04-22T22:32:55Z</time>
      </trkpt>
      <trkpt lat="46.71648" lon="-1.91568">
        <ele>4</ele>
        <time>2018-04-22T22:33:55Z</time>
      </trkpt>
      <trkpt lat="46.71738" lon="-1.91523">
        <ele>2</ele>
        <time>2018-04-22T22:34:55Z</time>
      </trkpt>
      <trkpt lat="46.71756" lon="-1.91507">
        <ele>2</ele>
        <time>2018-04-22T22:35:55Z</time>
      </trkpt>
      <trkpt lat="46.71766" lon="-1.9149">
        <ele>2</ele>
        <time>2018-04-22T22:36:55Z</time>
      </trkpt>
      <trkpt lat="46.71772" lon="-1.91461">
        <ele>2</ele>
        <time>2018-04-22T22:37:55Z</time>
      </trkpt>
      <trkpt lat="46.71779" lon="-1.91389">
        <ele>1</ele>
        <time>2018-04-22T22:38:55Z</time>
      </trkpt>
      <trkpt lat="46.71785" lon="-1.91363">
        <ele>1</ele>
        <time>2018-04-22T22:39:55Z</time>
      </trkpt>
      <trkpt lat="46.71819" lon="-1.91247">
        <ele>2</ele>
        <time>2018-04-22T22:40:55Z</time>
      </trkpt>
      <trkpt lat="46.71848" lon="-1.91108">
        <ele>2</ele>
        <time>2018-04-22T22:41:55Z</time>
      </trkpt>
      <trkpt lat="46.71853" lon="-1.91062">
        <ele>2</ele>
        <time>2018-04-22T22:42:55Z</time>
      </trkpt>
      <trkpt lat="46.71851" lon="-1.9102">
        <ele>3</ele>
        <time>2018-04-22T22:43:55Z</time>
      </trkpt>
      <trkpt lat="46.71826" lon="-1.90788">
        <ele>6</ele>
        <time>2018-04-22T22:44:55Z</time>
      </trkpt>
      <trkpt lat="46.71796" lon="-1.9066">
        <ele>5</ele>
        <time>2018-04-22T22:45:55Z</time>
      </trkpt>
      <trkpt lat="46.71792" lon="-1.90605">
        <ele>6</ele>
        <time>2018-04-22T22:46:55Z</time>
      </trkpt>
      <trkpt lat="46.71795" lon="-1.90567">
        <ele>7</ele>
        <time>2018-04-22T22:47:55Z</time>
      </trkpt>
      <trkpt lat="46.71841" lon="-1.9045">
        <ele>5</ele>
        <time>2018-04-22T22:48:55Z</time>
      </trkpt>
      <trkpt lat="46.71849" lon="-1.90419">
        <ele>4</ele>
        <time>2018-04-22T22:49:55Z</time>
      </trkpt>
      <trkpt lat="46.71853" lon="-1.90331">
        <ele>6</ele>
        <time>2018-04-22T22:50:55Z</time>
      </trkpt>
      <trkpt lat="46.71868" lon="-1.90309">
        <ele>6</ele>
        <time>2018-04-22T22:51:55Z</time>
      </trkpt>
      <trkpt lat="46.71881" lon="-1.90264">
        <ele>7</ele>
        <time>2018-04-22T22:52:55Z</time>
      </trkpt>
      <trkpt lat="46.71927" lon="-1.90241">
        <ele>6</ele>
        <time>2018-04-22T22:53:55Z</time>
      </trkpt>
      <trkpt lat="46.71942" lon="-1.90224">
        <ele>6</ele>
        <time>2018-04-22T22:54:55Z</time>
      </trkpt>
      <trkpt lat="46.71951" lon="-1.90202">
        <ele>6</ele>
        <time>2018-04-22T22:55:55Z</time>
      </trkpt>
      <trkpt lat="46.71954" lon="-1.90181">
        <ele>6</ele>
        <time>2018-04-22T22:56:55Z</time>
      </trkpt>
      <trkpt lat="46.71959" lon="-1.90132">
        <ele>6</ele>
        <time>2018-04-22T22:57:55Z</time>
      </trkpt>
      <trkpt lat="46.71969" lon="-1.90063">
        <ele>6</ele>
        <time>2018-04-22T22:58:55Z</time>
      </trkpt>
      <trkpt lat="46.72007" lon="-1.9">
        <ele>6</ele>
        <time>2018-04-22T22:59:55Z</time>
      </trkpt>
      <trkpt lat="46.72029" lon="-1.89957">
        <ele>7</ele>
        <time>2018-04-22T23:00:55Z</time>
      </trkpt>
      <trkpt lat="46.72036" lon="-1.89948">
        <ele>7</ele>
        <time>2018-04-22T23:01:55Z</time>
      </trkpt>
      <trkpt lat="46.72072" lon="-1.89917">
        <ele>7</ele>
        <time>2018-04-22T23:02:55Z</time>
      </trkpt>
      <trkpt lat="46.7225" lon="-1.89771">
        <ele>7</ele>
        <time>2018-04-22T23:03:55Z</time>
      </trkpt>
      <trkpt lat="46.72257" lon="-1.89788">
        <ele>7</ele>
        <time>2018-04-22T23:04:55Z</time>
      </trkpt>
      <trkpt lat="46.72302" lon="-1.89911">
        <ele>6</ele>
        <time>2018-04-22T23:05:55Z</time>
      </trkpt>
      <trkpt lat="46.72323" lon="-1.89963">
        <ele>6</ele>
        <time>2018-04-22T23:06:55Z</time>
      </trkpt>
      <trkpt lat="46.72353" lon="-1.90008">
        <ele>5</ele>
        <time>2018-04-22T23:07:55Z</time>
      </trkpt>
      <trkpt lat="46.72454" lon="-1.90223">
        <ele>2</ele>
        <time>2018-04-22T23:08:55Z</time>
      </trkpt>
      <trkpt lat="46.72463" lon="-1.9024">
        <ele>2</ele>
        <time>2018-04-22T23:09:55Z</time>
      </trkpt>
      <trkpt lat="46.72671" lon="-1.90443">
        <ele>3.9</ele>
        <time>2018-04-22T23:10:55Z</time>
      </trkpt>
      <trkpt lat="46.72671" lon="-1.90443">
        <ele>3.9</ele>
        <time>2018-04-22T23:11:55Z</time>
      </trkpt>
      <trkpt lat="46.727" lon="-1.90471">
        <ele>1.3</ele>
        <time>2018-04-22T23:12:55Z</time>
      </trkpt>
      <trkpt lat="46.7273" lon="-1.90513">
        <ele>3.7</ele>
        <time>2018-04-22T23:13:55Z</time>
      </trkpt>
      <trkpt lat="46.72775" lon="-1.90554">
        <ele>1</ele>
        <time>2018-04-22T23:14:55Z</time>
      </trkpt>
      <trkpt lat="46.72824" lon="-1.90619">
        <ele>3</ele>
        <time>2018-04-22T23:15:55Z</time>
      </trkpt>
      <trkpt lat="46.73035" lon="-1.9093">
        <ele>1</ele>
        <time>2018-04-22T23:16:55Z</time>
      </trkpt>
      <trkpt lat="46.73119" lon="-1.91063">
        <ele>3</ele>
        <time>2018-04-22T23:17:55Z</time>
      </trkpt>
      <trkpt lat="46.73161" lon="-1.91118">
        <ele>5</ele>
        <time>2018-04-22T23:18:55Z</time>
      </trkpt>
      <trkpt lat="46.73195" lon="-1.9118">
        <ele>8</ele>
        <time>2018-04-22T23:19:55Z</time>
      </trkpt>
      <trkpt lat="46.73222" lon="-1.91239">
        <ele>9</ele>
        <time>2018-04-22T23:20:55Z</time>
      </trkpt>
      <trkpt lat="46.73322" lon="-1.91471">
        <ele>14</ele>
        <time>2018-04-22T23:21:55Z</time>
      </trkpt>
      <trkpt lat="46.73327" lon="-1.91492">
        <ele>14</ele>
        <time>2018-04-22T23:22:55Z</time>
      </trkpt>
      <trkpt lat="46.73336" lon="-1.91479">
        <ele>14</ele>
        <time>2018-04-22T23:23:55Z</time>
      </trkpt>
      <trkpt lat="46.73347" lon="-1.91437">
        <ele>13</ele>
        <time>2018-04-22T23:24:55Z</time>
      </trkpt>
      <trkpt lat="46.73355" lon="-1.91412">
        <ele>13</ele>
        <time>2018-04-22T23:25:55Z</time>
      </trkpt>
      <trkpt lat="46.73448" lon="-1.91249">
        <ele>10</ele>
        <time>2018-04-22T23:26:55Z</time>
      </trkpt>
      <trkpt lat="46.73452" lon="-1.91244">
        <ele>10</ele>
        <time>2018-04-22T23:27:55Z</time>
      </trkpt>
      <trkpt lat="46.73459" lon="-1.91242">
        <ele>10</ele>
        <time>2018-04-22T23:28:55Z</time>
      </trkpt>
      <trkpt lat="46.73467" lon="-1.91245">
        <ele>9</ele>
        <time>2018-04-22T23:29:55Z</time>
      </trkpt>
      <trkpt lat="46.73568" lon="-1.9135">
        <ele>7</ele>
        <time>2018-04-22T23:30:55Z</time>
      </trkpt>
      <trkpt lat="46.73618" lon="-1.91433">
        <ele>6</ele>
        <time>2018-04-22T23:31:55Z</time>
      </trkpt>
      <trkpt lat="46.73667" lon="-1.91516">
        <ele>6</ele>
        <time>2018-04-22T23:32:55Z</time>
      </trkpt>
      <trkpt lat="46.73753" lon="-1.9168">
        <ele>5</ele>
        <time>2018-04-22T23:33:55Z</time>
      </trkpt>
      <trkpt lat="46.73768" lon="-1.91717">
        <ele>5</ele>
        <time>2018-04-22T23:34:55Z</time>
      </trkpt>
      <trkpt lat="46.73776" lon="-1.91742">
        <ele>5</ele>
        <time>2018-04-22T23:35:55Z</time>
      </trkpt>
      <trkpt lat="46.7378" lon="-1.91772">
        <ele>5</ele>
        <time>2018-04-22T23:36:55Z</time>
      </trkpt>
      <trkpt lat="46.73782" lon="-1.91917">
        <ele>5</ele>
        <time>2018-04-22T23:37:55Z</time>
      </trkpt>
      <trkpt lat="46.73799" lon="-1.91889">
        <ele>5</ele>
        <time>2018-04-22T23:38:55Z</time>
      </trkpt>
      <trkpt lat="46.73869" lon="-1.91827">
        <ele>4</ele>
        <time>2018-04-22T23:39:55Z</time>
      </trkpt>
      <trkpt lat="46.73966" lon="-1.91728">
        <ele>5</ele>
        <time>2018-04-22T23:40:55Z</time>
      </trkpt>
      <trkpt lat="46.74007" lon="-1.91693">
        <ele>6</ele>
        <time>2018-04-22T23:41:55Z</time>
      </trkpt>
      <trkpt lat="46.74115" lon="-1.9161">
        <ele>5</ele>
        <time>2018-04-22T23:42:55Z</time>
      </trkpt>
      <trkpt lat="46.74115" lon="-1.9161">
        <ele>5</ele>
        <time>2018-04-22T23:43:55Z</time>
      </trkpt>
      <trkpt lat="46.74126" lon="-1.91601">
        <ele>5</ele>
        <time>2018-04-22T23:44:55Z</time>
      </trkpt>
      <trkpt lat="46.74207" lon="-1.91526">
        <ele>5</ele>
        <time>2018-04-22T23:45:55Z</time>
      </trkpt>
      <trkpt lat="46.743" lon="-1.91428">
        <ele>4</ele>
        <time>2018-04-22T23:46:55Z</time>
      </trkpt>
      <trkpt lat="46.74313" lon="-1.91424">
        <ele>4</ele>
        <time>2018-04-22T23:47:55Z</time>
      </trkpt>
      <trkpt lat="46.7436" lon="-1.91329">
        <ele>4</ele>
        <time>2018-04-22T23:48:55Z</time>
      </trkpt>
      <trkpt lat="46.74386" lon="-1.91292">
        <ele>3</ele>
        <time>2018-04-22T23:49:55Z</time>
      </trkpt>
      <trkpt lat="46.74465" lon="-1.91199">
        <ele>4</ele>
        <time>2018-04-22T23:50:55Z</time>
      </trkpt>
      <trkpt lat="46.74575" lon="-1.91061">
        <ele>2</ele>
        <time>2018-04-22T23:51:55Z</time>
      </trkpt>
      <trkpt lat="46.74577" lon="-1.91044">
        <ele>3</ele>
        <time>2018-04-22T23:52:55Z</time>
      </trkpt>
      <trkpt lat="46.74574" lon="-1.91036">
        <ele>3</ele>
        <time>2018-04-22T23:53:55Z</time>
      </trkpt>
      <trkpt lat="46.74575" lon="-1.91031">
        <ele>3</ele>
        <time>2018-04-22T23:54:55Z</time>
      </trkpt>
      <trkpt lat="46.7458" lon="-1.91024">
        <ele>3</ele>
        <time>2018-04-22T23:55:55Z</time>
      </trkpt>
      <trkpt lat="46.74587" lon="-1.91024">
        <ele>3</ele>
        <time>2018-04-22T23:56:55Z</time>
      </trkpt>
      <trkpt lat="46.74597" lon="-1.91009">
        <ele>3</ele>
        <time>2018-04-22T23:57:55Z</time>
      </trkpt>
      <trkpt lat="46.74598" lon="-1.91001">
        <ele>3</ele>
        <time>2018-04-22T23:58:55Z</time>
      </trkpt>
      <trkpt lat="46.74599" lon="-1.90976">
        <ele>3</ele>
        <time>2018-04-22T23:59:55Z</time>
      </trkpt>
      <trkpt lat="46.74596" lon="-1.90959">
        <ele>3</ele>
        <time>2018-04-23T00:00:55Z</time>
      </trkpt>
      <trkpt lat="46.74579" lon="-1.90914">
        <ele>3</ele>
        <time>2018-04-23T00:01:55Z</time>
      </trkpt>
      <trkpt lat="46.74564" lon="-1.90883">
        <ele>4</ele>
        <time>2018-04-23T00:02:55Z</time>
      </trkpt>
      <trkpt lat="46.74551" lon="-1.90863">
        <ele>4</ele>
        <time>2018-04-23T00:03:55Z</time>
      </trkpt>
      <trkpt lat="46.74506" lon="-1.90802">
        <ele>5</ele>
        <time>2018-04-23T00:04:55Z</time>
      </trkpt>
      <trkpt lat="46.74487" lon="-1.90753">
        <ele>5</ele>
        <time>2018-04-23T00:05:55Z</time>
      </trkpt>
      <trkpt lat="46.74483" lon="-1.90734">
        <ele>5</ele>
        <time>2018-04-23T00:06:55Z</time>
      </trkpt>
      <trkpt lat="46.74483" lon="-1.9072">
        <ele>5</ele>
        <time>2018-04-23T00:07:55Z</time>
      </trkpt>
      <trkpt lat="46.74487" lon="-1.90707">
        <ele>5</ele>
        <time>2018-04-23T00:08:55Z</time>
      </trkpt>
      <trkpt lat="46.7449" lon="-1.907">
        <ele>4</ele>
        <time>2018-04-23T00:09:55Z</time>
      </trkpt>
      <trkpt lat="46.74516" lon="-1.90663">
        <ele>4</ele>
        <time>2018-04-23T00:10:55Z</time>
      </trkpt>
      <trkpt lat="46.74518" lon="-1.90655">
        <ele>4</ele>
        <time>2018-04-23T00:11:55Z</time>
      </trkpt>
      <trkpt lat="46.74527" lon="-1.90642">
        <ele>4</ele>
        <time>2018-04-23T00:12:55Z</time>
      </trkpt>
      <trkpt lat="46.74539" lon="-1.90633">
        <ele>4</ele>
        <time>2018-04-23T00:13:55Z</time>
      </trkpt>
      <trkpt lat="46.74545" lon="-1.90634">
        <ele>4</ele>
        <time>2018-04-23T00:14:55Z</time>
      </trkpt>
      <trkpt lat="46.74616" lon="-1.90577">
        <ele>2</ele>
        <time>2018-04-23T00:15:55Z</time>
      </trkpt>
      <trkpt lat="46.74682" lon="-1.90516">
        <ele>3</ele>
        <time>2018-04-23T00:16:55Z</time>
      </trkpt>
      <trkpt lat="46.74817" lon="-1.90411">
        <ele>4</ele>
        <time>2018-04-23T00:17:55Z</time>
      </trkpt>
      <trkpt lat="46.74817" lon="-1.90407">
        <ele>4</ele>
        <time>2018-04-23T00:18:55Z</time>
      </trkpt>
      <trkpt lat="46.74826" lon="-1.90398">
        <ele>4</ele>
        <time>2018-04-23T00:19:55Z</time>
      </trkpt>
      <trkpt lat="46.74828" lon="-1.9039">
        <ele>4</ele>
        <time>2018-04-23T00:20:55Z</time>
      </trkpt>
      <trkpt lat="46.74838" lon="-1.9037">
        <ele>5</ele>
        <time>2018-04-23T00:21:55Z</time>
      </trkpt>
      <trkpt lat="46.74845" lon="-1.90337">
        <ele>5</ele>
        <time>2018-04-23T00:22:55Z</time>
      </trkpt>
      <trkpt lat="46.74851" lon="-1.90286">
        <ele>5</ele>
        <time>2018-04-23T00:23:55Z</time>
      </trkpt>
      <trkpt lat="46.74855" lon="-1.9018">
        <ele>6</ele>
        <time>2018-04-23T00:24:55Z</time>
      </trkpt>
      <trkpt lat="46.74849" lon="-1.8993">
        <ele>6</ele>
        <time>2018-04-23T00:25:55Z</time>
      </trkpt>
      <trkpt lat="46.74851" lon="-1.89897">
        <ele>6</ele>
        <time>2018-04-23T00:26:55Z</time>
      </trkpt>
      <trkpt lat="46.74849" lon="-1.89855">
        <ele>7</ele>
        <time>2018-04-23T00:27:55Z</time>
      </trkpt>
      <trkpt lat="46.74842" lon="-1.89774">
        <ele>7</ele>
        <time>2018-04-23T00:28:55Z</time>
      </trkpt>
      <trkpt lat="46.74843" lon="-1.89725">
        <ele>8</ele>
        <time>2018-04-23T00:29:55Z</time>
      </trkpt>
      <trkpt lat="46.74841" lon="-1.89377">
        <ele>8</ele>
        <time>2018-04-23T00:30:55Z</time>
      </trkpt>
      <trkpt lat="46.7484" lon="-1.89331">
        <ele>8</ele>
        <time>2018-04-23T00:31:55Z</time>
      </trkpt>
      <trkpt lat="46.74824" lon="-1.89081">
        <ele>11</ele>
        <time>2018-04-23T00:32:55Z</time>
      </trkpt>
      <trkpt lat="46.74822" lon="-1.89029">
        <ele>11</ele>
        <time>2018-04-23T00:33:55Z</time>
      </trkpt>
      <trkpt lat="46.74829" lon="-1.88791">
        <ele>12</ele>
        <time>2018-04-23T00:34:55Z</time>
      </trkpt>
      <trkpt lat="46.74845" lon="-1.88622">
        <ele>12</ele>
        <time>2018-04-23T00:35:55Z</time>
      </trkpt>
      <trkpt lat="46.74855" lon="-1.88559">
        <ele>12</ele>
        <time>2018-04-23T00:36:55Z</time>
      </trkpt>
      <trkpt lat="46.74855" lon="-1.88559">
        <ele>12</ele>
        <time>2018-04-23T00:37:55Z</time>
      </trkpt>
      <trkpt lat="46.74925" lon="-1.88287">
        <ele>13</ele>
        <time>2018-04-23T00:38:55Z</time>
      </trkpt>
      <trkpt lat="46.74942" lon="-1.88238">
        <ele>12</ele>
        <time>2018-04-23T00:39:55Z</time>
      </trkpt>
      <trkpt lat="46.74959" lon="-1.88202">
        <ele>11</ele>
        <time>2018-04-23T00:40:55Z</time>
      </trkpt>
      <trkpt lat="46.74984" lon="-1.88162">
        <ele>9</ele>
        <time>2018-04-23T00:41:55Z</time>
      </trkpt>
      <trkpt lat="46.75093" lon="-1.88019">
        <ele>9</ele>
        <time>2018-04-23T00:42:55Z</time>
      </trkpt>
      <trkpt lat="46.75105" lon="-1.87998">
        <ele>10</ele>
        <time>2018-04-23T00:43:55Z</time>
      </trkpt>
      <trkpt lat="46.75112" lon="-1.87979">
        <ele>11</ele>
        <time>2018-04-23T00:44:55Z</time>
      </trkpt>
      <trkpt lat="46.75117" lon="-1.87961">
        <ele>11</ele>
        <time>2018-04-23T00:45:55Z</time>
      </trkpt>
      <trkpt lat="46.75122" lon="-1.87938">
        <ele>12</ele>
        <time>2018-04-23T00:46:55Z</time>
      </trkpt>
      <trkpt lat="46.75128" lon="-1.87904">
        <ele>12</ele>
        <time>2018-04-23T00:47:55Z</time>
      </trkpt>
      <trkpt lat="46.75136" lon="-1.87834">
        <ele>11</ele>
        <time>2018-04-23T00:48:55Z</time>
      </trkpt>
      <trkpt lat="46.75148" lon="-1.87672">
        <ele>11</ele>
        <time>2018-04-23T00:49:55Z</time>
      </trkpt>
      <trkpt lat="46.75149" lon="-1.87614">
        <ele>12</ele>
        <time>2018-04-23T00:50:55Z</time>
      </trkpt>
      <trkpt lat="46.75144" lon="-1.87447">
        <ele>13</ele>
        <time>2018-04-23T00:51:55Z</time>
      </trkpt>
      <trkpt lat="46.7513" lon="-1.8728">
        <ele>14</ele>
        <time>2018-04-23T00:52:55Z</time>
      </trkpt>
      <trkpt lat="46.7513" lon="-1.8723">
        <ele>15</ele>
        <time>2018-04-23T00:53:55Z</time>
      </trkpt>
      <trkpt lat="46.75134" lon="-1.8719">
        <ele>16</ele>
        <time>2018-04-23T00:54:55Z</time>
      </trkpt>
      <trkpt lat="46.75147" lon="-1.87112">
        <ele>17</ele>
        <time>2018-04-23T00:55:55Z</time>
      </trkpt>
      <trkpt lat="46.75152" lon="-1.87067">
        <ele>16</ele>
        <time>2018-04-23T00:56:55Z</time>
      </trkpt>
      <trkpt lat="46.75146" lon="-1.87064">
        <ele>16</ele>
        <time>2018-04-23T00:57:55Z</time>
      </trkpt>
      <trkpt lat="46.75141" lon="-1.87058">
        <ele>16</ele>
        <time>2018-04-23T00:58:55Z</time>
      </trkpt>
      <trkpt lat="46.75137" lon="-1.8705">
        <ele>16</ele>
        <time>2018-04-23T00:59:55Z</time>
      </trkpt>
      <trkpt lat="46.75135" lon="-1.8704">
        <ele>15</ele>
        <time>2018-04-23T01:00:55Z</time>
      </trkpt>
      <trkpt lat="46.75135" lon="-1.87031">
        <ele>15</ele>
        <time>2018-04-23T01:01:55Z</time>
      </trkpt>
      <trkpt lat="46.75138" lon="-1.87019">
        <ele>15</ele>
        <time>2018-04-23T01:02:55Z</time>
      </trkpt>
      <trkpt lat="46.75144" lon="-1.8701">
        <ele>16</ele>
        <time>2018-04-23T01:03:55Z</time>
      </trkpt>
      <trkpt lat="46.75152" lon="-1.87005">
        <ele>16</ele>
        <time>2018-04-23T01:04:55Z</time>
      </trkpt>
      <trkpt lat="46.7516" lon="-1.87005">
        <ele>17</ele>
        <time>2018-04-23T01:05:55Z</time>
      </trkpt>
      <trkpt lat="46.75167" lon="-1.87008">
        <ele>17</ele>
        <time>2018-04-23T01:06:55Z</time>
      </trkpt>
      <trkpt lat="46.75177" lon="-1.86989">
        <ele>17</ele>
        <time>2018-04-23T01:07:55Z</time>
      </trkpt>
      <trkpt lat="46.75204" lon="-1.86895">
        <ele>18</ele>
        <time>2018-04-23T01:08:55Z</time>
      </trkpt>
      <trkpt lat="46.75235" lon="-1.86795">
        <ele>17</ele>
        <time>2018-04-23T01:09:55Z</time>
      </trkpt>
      <trkpt lat="46.75299" lon="-1.86629">
        <ele>18</ele>
        <time>2018-04-23T01:10:55Z</time>
      </trkpt>
      <trkpt lat="46.75333" lon="-1.86562">
        <ele>18</ele>
        <time>2018-04-23T01:11:55Z</time>
      </trkpt>
      <trkpt lat="46.75375" lon="-1.86489">
        <ele>18</ele>
        <time>2018-04-23T01:12:55Z</time>
      </trkpt>
      <trkpt lat="46.75389" lon="-1.86462">
        <ele>17</ele>
        <time>2018-04-23T01:13:55Z</time>
      </trkpt>
      <trkpt lat="46.75413" lon="-1.86405">
        <ele>16</ele>
        <time>2018-04-23T01:14:55Z</time>
      </trkpt>
      <trkpt lat="46.75433" lon="-1.86338">
        <ele>17</ele>
        <time>2018-04-23T01:15:55Z</time>
      </trkpt>
      <trkpt lat="46.75451" lon="-1.86224">
        <ele>17</ele>
        <time>2018-04-23T01:16:55Z</time>
      </trkpt>
      <trkpt lat="46.75475" lon="-1.86046">
        <ele>17</ele>
        <time>2018-04-23T01:17:55Z</time>
      </trkpt>
      <trkpt lat="46.75485" lon="-1.85986">
        <ele>18</ele>
        <time>2018-04-23T01:18:55Z</time>
      </trkpt>
      <trkpt lat="46.75493" lon="-1.85951">
        <ele>18</ele>
        <time>2018-04-23T01:19:55Z</time>
      </trkpt>
      <trkpt lat="46.75573" lon="-1.8565">
        <ele>20</ele>
        <time>2018-04-23T01:20:55Z</time>
      </trkpt>
      <trkpt lat="46.75623" lon="-1.85503">
        <ele>20</ele>
        <time>2018-04-23T01:21:55Z</time>
      </trkpt>
      <trkpt lat="46.75784" lon="-1.85127">
        <ele>21</ele>
        <time>2018-04-23T01:22:55Z</time>
      </trkpt>
      <trkpt lat="46.75867" lon="-1.84937">
        <ele>20</ele>
        <time>2018-04-23T01:23:55Z</time>
      </trkpt>
      <trkpt lat="46.75896" lon="-1.84889">
        <ele>21</ele>
        <time>2018-04-23T01:24:55Z</time>
      </trkpt>
      <trkpt lat="46.7591" lon="-1.84869">
        <ele>21</ele>
        <time>2018-04-23T01:25:55Z</time>
      </trkpt>
      <trkpt lat="46.75991" lon="-1.8476">
        <ele>20</ele>
        <time>2018-04-23T01:26:55Z</time>
      </trkpt>
      <trkpt lat="46.76021" lon="-1.84714">
        <ele>20</ele>
        <time>2018-04-23T01:27:55Z</time>
      </trkpt>
      <trkpt lat="46.76032" lon="-1.84694">
        <ele>20</ele>
        <time>2018-04-23T01:28:55Z</time>
      </trkpt>
      <trkpt lat="46.7605" lon="-1.8463">
        <ele>21</ele>
        <time>2018-04-23T01:29:55Z</time>
      </trkpt>
      <trkpt lat="46.76072" lon="-1.84469">
        <ele>20</ele>
        <time>2018-04-23T01:30:55Z</time>
      </trkpt>
      <trkpt lat="46.76074" lon="-1.84421">
        <ele>21</ele>
        <time>2018-04-23T01:31:55Z</time>
      </trkpt>
      <trkpt lat="46.76073" lon="-1.84383">
        <ele>21</ele>
        <time>2018-04-23T01:32:55Z</time>
      </trkpt>
      <trkpt lat="46.76064" lon="-1.84236">
        <ele>22</ele>
        <time>2018-04-23T01:33:55Z</time>
      </trkpt>
      <trkpt lat="46.76047" lon="-1.84084">
        <ele>21</ele>
        <time>2018-04-23T01:34:55Z</time>
      </trkpt>
      <trkpt lat="46.76044" lon="-1.84003">
        <ele>21</ele>
        <time>2018-04-23T01:35:55Z</time>
      </trkpt>
      <trkpt lat="46.76047" lon="-1.83941">
        <ele>21</ele>
        <time>2018-04-23T01:36:55Z</time>
      </trkpt>
      <trkpt lat="46.76051" lon="-1.83902">
        <ele>21</ele>
        <time>2018-04-23T01:37:55Z</time>
      </trkpt>
      <trkpt lat="46.76081" lon="-1.83845">
        <ele>21</ele>
        <time>2018-04-23T01:38:55Z</time>
      </trkpt>
      <trkpt lat="46.76123" lon="-1.83771">
        <ele>20</ele>
        <time>2018-04-23T01:39:55Z</time>
      </trkpt>
      <trkpt lat="46.76134" lon="-1.83758">
        <ele>20</ele>
        <time>2018-04-23T01:40:55Z</time>
      </trkpt>
      <trkpt lat="46.76182" lon="-1.83726">
        <ele>20</ele>
        <time>2018-04-23T01:41:55Z</time>
      </trkpt>
      <trkpt lat="46.76193" lon="-1.83703">
        <ele>19</ele>
        <time>2018-04-23T01:42:55Z</time>
      </trkpt>
      <trkpt lat="46.76205" lon="-1.83688">
        <ele>19</ele>
        <time>2018-04-23T01:43:55Z</time>
      </trkpt>
      <trkpt lat="46.76237" lon="-1.83667">
        <ele>19</ele>
        <time>2018-04-23T01:44:55Z</time>
      </trkpt>
      <trkpt lat="46.76245" lon="-1.83666">
        <ele>19</ele>
        <time>2018-04-23T01:45:55Z</time>
      </trkpt>
      <trkpt lat="46.76263" lon="-1.83671">
        <ele>19</ele>
        <time>2018-04-23T01:46:55Z</time>
      </trkpt>
      <trkpt lat="46.76279" lon="-1.8367">
        <ele>19</ele>
        <time>2018-04-23T01:47:55Z</time>
      </trkpt>
      <trkpt lat="46.7632" lon="-1.83655">
        <ele>19</ele>
        <time>2018-04-23T01:48:55Z</time>
      </trkpt>
      <trkpt lat="46.7637" lon="-1.83618">
        <ele>18</ele>
        <time>2018-04-23T01:49:55Z</time>
      </trkpt>
      <trkpt lat="46.7642" lon="-1.83588">
        <ele>18</ele>
        <time>2018-04-23T01:50:55Z</time>
      </trkpt>
      <trkpt lat="46.7642" lon="-1.83588">
        <ele>18</ele>
        <time>2018-04-23T01:51:55Z</time>
      </trkpt>
      <trkpt lat="46.76522" lon="-1.8353">
        <ele>16</ele>
        <time>2018-04-23T01:52:55Z</time>
      </trkpt>
      <trkpt lat="46.76594" lon="-1.83486">
        <ele>17</ele>
        <time>2018-04-23T01:53:55Z</time>
      </trkpt>
      <trkpt lat="46.76639" lon="-1.8345">
        <ele>18</ele>
        <time>2018-04-23T01:54:55Z</time>
      </trkpt>
      <trkpt lat="46.76684" lon="-1.83399">
        <ele>19</ele>
        <time>2018-04-23T01:55:55Z</time>
      </trkpt>
      <trkpt lat="46.76707" lon="-1.83368">
        <ele>19</ele>
        <time>2018-04-23T01:56:55Z</time>
      </trkpt>
      <trkpt lat="46.76751" lon="-1.83294">
        <ele>19</ele>
        <time>2018-04-23T01:57:55Z</time>
      </trkpt>
      <trkpt lat="46.76771" lon="-1.83249">
        <ele>19</ele>
        <time>2018-04-23T01:58:55Z</time>
      </trkpt>
      <trkpt lat="46.76781" lon="-1.83226">
        <ele>19</ele>
        <time>2018-04-23T01:59:55Z</time>
      </trkpt>
      <trkpt lat="46.76814" lon="-1.83126">
        <ele>18</ele>
        <time>2018-04-23T02:00:55Z</time>
      </trkpt>
      <trkpt lat="46.76833" lon="-1.83073">
        <ele>17</ele>
        <time>2018-04-23T02:01:55Z</time>
      </trkpt>
      <trkpt lat="46.76857" lon="-1.83025">
        <ele>18</ele>
        <time>2018-04-23T02:02:55Z</time>
      </trkpt>
      <trkpt lat="46.76877" lon="-1.82986">
        <ele>20</ele>
        <time>2018-04-23T02:03:55Z</time>
      </trkpt>
      <trkpt lat="46.76905" lon="-1.82941">
        <ele>23</ele>
        <time>2018-04-23T02:04:55Z</time>
      </trkpt>
      <trkpt lat="46.76938" lon="-1.82894">
        <ele>25</ele>
        <time>2018-04-23T02:05:55Z</time>
      </trkpt>
      <trkpt lat="46.76968" lon="-1.82859">
        <ele>26</ele>
        <time>2018-04-23T02:06:55Z</time>
      </trkpt>
      <trkpt lat="46.77091" lon="-1.82733">
        <ele>28</ele>
        <time>2018-04-23T02:07:55Z</time>
      </trkpt>
      <trkpt lat="46.77485" lon="-1.8232">
        <ele>28</ele>
        <time>2018-04-23T02:08:55Z</time>
      </trkpt>
      <trkpt lat="46.77955" lon="-1.81834">
        <ele>32</ele>
        <time>2018-04-23T02:09:55Z</time>
      </trkpt>
      <trkpt lat="46.78495" lon="-1.8127">
        <ele>27</ele>
        <time>2018-04-23T02:10:55Z</time>
      </trkpt>
      <trkpt lat="46.78855" lon="-1.80888">
        <ele>30</ele>
        <time>2018-04-23T02:11:55Z</time>
      </trkpt>
      <trkpt lat="46.79199" lon="-1.80528">
        <ele>28</ele>
        <time>2018-04-23T02:12:55Z</time>
      </trkpt>
      <trkpt lat="46.7945" lon="-1.8026">
        <ele>25</ele>
        <time>2018-04-23T02:13:55Z</time>
      </trkpt>
      <trkpt lat="46.79836" lon="-1.79527">
        <ele>25</ele>
        <time>2018-04-23T02:14:55Z</time>
      </trkpt>
      <trkpt lat="46.79896" lon="-1.79354">
        <ele>27</ele>
        <time>2018-04-23T02:15:55Z</time>
      </trkpt>
      <trkpt lat="46.79954" lon="-1.79177">
        <ele>27</ele>
        <time>2018-04-23T02:16:55Z</time>
      </trkpt>
      <trkpt lat="46.80365" lon="-1.78216">
        <ele>26</ele>
        <time>2018-04-23T02:17:55Z</time>
      </trkpt>
      <trkpt lat="46.80417" lon="-1.781">
        <ele>25</ele>
        <time>2018-04-23T02:18:55Z</time>
      </trkpt>
      <trkpt lat="46.80477" lon="-1.78016">
        <ele>24</ele>
        <time>2018-04-23T02:19:55Z</time>
      </trkpt>
      <trkpt lat="46.80622" lon="-1.7782">
        <ele>21</ele>
        <time>2018-04-23T02:20:55Z</time>
      </trkpt>
      <trkpt lat="46.8076" lon="-1.77627">
        <ele>25</ele>
        <time>2018-04-23T02:21:55Z</time>
      </trkpt>
      <trkpt lat="46.80781" lon="-1.77607">
        <ele>25</ele>
        <time>2018-04-23T02:22:55Z</time>
      </trkpt>
      <trkpt lat="46.81244" lon="-1.77291">
        <ele>22</ele>
        <time>2018-04-23T02:23:55Z</time>
      </trkpt>
      <trkpt lat="46.81316" lon="-1.77212">
        <ele>22</ele>
        <time>2018-04-23T02:24:55Z</time>
      </trkpt>
      <trkpt lat="46.8142" lon="-1.77094">
        <ele>25</ele>
        <time>2018-04-23T02:25:55Z</time>
      </trkpt>
      <trkpt lat="46.8142" lon="-1.77094">
        <ele>25</ele>
        <time>2018-04-23T02:26:55Z</time>
      </trkpt>
      <trkpt lat="46.81786" lon="-1.76673">
        <ele>34</ele>
        <time>2018-04-23T02:27:55Z</time>
      </trkpt>
      <trkpt lat="46.81804" lon="-1.76655">
        <ele>35</ele>
        <time>2018-04-23T02:28:55Z</time>
      </trkpt>
      <trkpt lat="46.81839" lon="-1.76627">
        <ele>36</ele>
        <time>2018-04-23T02:29:55Z</time>
      </trkpt>
      <trkpt lat="46.81857" lon="-1.76615">
        <ele>36</ele>
        <time>2018-04-23T02:30:55Z</time>
      </trkpt>
      <trkpt lat="46.81943" lon="-1.76572">
        <ele>37</ele>
        <time>2018-04-23T02:31:55Z</time>
      </trkpt>
      <trkpt lat="46.81942" lon="-1.76561">
        <ele>37</ele>
        <time>2018-04-23T02:32:55Z</time>
      </trkpt>
      <trkpt lat="46.81943" lon="-1.76551">
        <ele>37</ele>
        <time>2018-04-23T02:33:55Z</time>
      </trkpt>
      <trkpt lat="46.81947" lon="-1.76544">
        <ele>37</ele>
        <time>2018-04-23T02:34:55Z</time>
      </trkpt>
      <trkpt lat="46.81951" lon="-1.7654">
        <ele>38</ele>
        <time>2018-04-23T02:35:55Z</time>
      </trkpt>
      <trkpt lat="46.81959" lon="-1.76538">
        <ele>38</ele>
        <time>2018-04-23T02:36:55Z</time>
      </trkpt>
      <trkpt lat="46.81965" lon="-1.7654">
        <ele>38</ele>
        <time>2018-04-23T02:37:55Z</time>
      </trkpt>
      <trkpt lat="46.81971" lon="-1.76546">
        <ele>38</ele>
        <time>2018-04-23T02:38:55Z</time>
      </trkpt>
      <trkpt lat="46.81973" lon="-1.76553">
        <ele>38</ele>
        <time>2018-04-23T02:39:55Z</time>
      </trkpt>
      <trkpt lat="46.8201" lon="-1.76517">
        <ele>40</ele>
        <time>2018-04-23T02:40:55Z</time>
      </trkpt>
      <trkpt lat="46.82054" lon="-1.76465">
        <ele>41</ele>
        <time>2018-04-23T02:41:55Z</time>
      </trkpt>
      <trkpt lat="46.82072" lon="-1.7644">
        <ele>42</ele>
        <time>2018-04-23T02:42:55Z</time>
      </trkpt>
      <trkpt lat="46.82093" lon="-1.76418">
        <ele>43</ele>
        <time>2018-04-23T02:43:55Z</time>
      </trkpt>
      <trkpt lat="46.82128" lon="-1.76389">
        <ele>46</ele>
        <time>2018-04-23T02:44:55Z</time>
      </trkpt>
      <trkpt lat="46.82223" lon="-1.76351">
        <ele>49</ele>
        <time>2018-04-23T02:45:55Z</time>
      </trkpt>
      <trkpt lat="46.82252" lon="-1.76337">
        <ele>50</ele>
        <time>2018-04-23T02:46:55Z</time>
      </trkpt>
      <trkpt lat="46.82295" lon="-1.7631">
        <ele>52</ele>
        <time>2018-04-23T02:47:55Z</time>
      </trkpt>
      <trkpt lat="46.82343" lon="-1.76255">
        <ele>56</ele>
        <time>2018-04-23T02:48:55Z</time>
      </trkpt>
      <trkpt lat="46.82373" lon="-1.76237">
        <ele>56</ele>
        <time>2018-04-23T02:49:55Z</time>
      </trkpt>
      <trkpt lat="46.82458" lon="-1.76176">
        <ele>57</ele>
        <time>2018-04-23T02:50:55Z</time>
      </trkpt>
      <trkpt lat="46.82502" lon="-1.76152">
        <ele>57</ele>
        <time>2018-04-23T02:51:55Z</time>
      </trkpt>
      <trkpt lat="46.8253" lon="-1.76143">
        <ele>55</ele>
        <time>2018-04-23T02:52:55Z</time>
      </trkpt>
      <trkpt lat="46.82548" lon="-1.76142">
        <ele>55</ele>
        <time>2018-04-23T02:53:55Z</time>
      </trkpt>
      <trkpt lat="46.82636" lon="-1.76162">
        <ele>55</ele>
        <time>2018-04-23T02:54:55Z</time>
      </trkpt>
      <trkpt lat="46.82664" lon="-1.76172">
        <ele>56</ele>
        <time>2018-04-23T02:55:55Z</time>
      </trkpt>
      <trkpt lat="46.82681" lon="-1.76167">
        <ele>56</ele>
        <time>2018-04-23T02:56:55Z</time>
      </trkpt>
      <trkpt lat="46.82693" lon="-1.7616">
        <ele>56</ele>
        <time>2018-04-23T02:57:55Z</time>
      </trkpt>
      <trkpt lat="46.82697" lon="-1.76161">
        <ele>56</ele>
        <time>2018-04-23T02:58:55Z</time>
      </trkpt>
      <trkpt lat="46.82701" lon="-1.76168">
        <ele>56</ele>
        <time>2018-04-23T02:59:55Z</time>
      </trkpt>
      <trkpt lat="46.82705" lon="-1.76185">
        <ele>56</ele>
        <time>2018-04-23T03:00:55Z</time>
      </trkpt>
      <trkpt lat="46.82719" lon="-1.76202">
        <ele>56</ele>
        <time>2018-04-23T03:01:55Z</time>
      </trkpt>
      <trkpt lat="46.82761" lon="-1.7622">
        <ele>56</ele>
        <time>2018-04-23T03:02:55Z</time>
      </trkpt>
      <trkpt lat="46.82855" lon="-1.7627">
        <ele>58</ele>
        <time>2018-04-23T03:03:55Z</time>
      </trkpt>
      <trkpt lat="46.82888" lon="-1.7628">
        <ele>59</ele>
        <time>2018-04-23T03:04:55Z</time>
      </trkpt>
      <trkpt lat="46.82889" lon="-1.76276">
        <ele>59</ele>
        <time>2018-04-23T03:05:55Z</time>
      </trkpt>
      <trkpt lat="46.82895" lon="-1.76272">
        <ele>59</ele>
        <time>2018-04-23T03:06:55Z</time>
      </trkpt>
      <trkpt lat="46.82898" lon="-1.76273">
        <ele>60</ele>
        <time>2018-04-23T03:07:55Z</time>
      </trkpt>
      <trkpt lat="46.82902" lon="-1.76281">
        <ele>60</ele>
        <time>2018-04-23T03:08:55Z</time>
      </trkpt>
      <trkpt lat="46.82899" lon="-1.76289">
        <ele>60</ele>
        <time>2018-04-23T03:09:55Z</time>
      </trkpt>
      <trkpt lat="46.82916" lon="-1.76305">
        <ele>61</ele>
        <time>2018-04-23T03:10:55Z</time>
      </trkpt>
      <trkpt lat="46.82939" lon="-1.7634">
        <ele>61</ele>
        <time>2018-04-23T03:11:55Z</time>
      </trkpt>
      <trkpt lat="46.8308" lon="-1.7662">
        <ele>61</ele>
        <time>2018-04-23T03:12:55Z</time>
      </trkpt>
      <trkpt lat="46.83097" lon="-1.76657">
        <ele>61</ele>
        <time>2018-04-23T03:13:55Z</time>
      </trkpt>
      <trkpt lat="46.83268" lon="-1.76837">
        <ele>61</ele>
        <time>2018-04-23T03:14:55Z</time>
      </trkpt>
      <trkpt lat="46.83306" lon="-1.76885">
        <ele>61</ele>
        <time>2018-04-23T03:15:55Z</time>
      </trkpt>
      <trkpt lat="46.83534" lon="-1.77282">
        <ele>60</ele>
        <time>2018-04-23T03:16:55Z</time>
      </trkpt>
      <trkpt lat="46.83602" lon="-1.77415">
        <ele>61</ele>
        <time>2018-04-23T03:17:55Z</time>
      </trkpt>
      <trkpt lat="46.83602" lon="-1.77415">
        <ele>61</ele>
        <time>2018-04-23T03:18:55Z</time>
      </trkpt>
      <trkpt lat="46.83704" lon="-1.77616">
        <ele>60</ele>
        <time>2018-04-23T03:19:55Z</time>
      </trkpt>
      <trkpt lat="46.83899" lon="-1.7812">
        <ele>61</ele>
        <time>2018-04-23T03:20:55Z</time>
      </trkpt>
      <trkpt lat="46.83925" lon="-1.78176">
        <ele>61</ele>
        <time>2018-04-23T03:21:55Z</time>
      </trkpt>
      <trkpt lat="46.84111" lon="-1.7845">
        <ele>58</ele>
        <time>2018-04-23T03:22:55Z</time>
      </trkpt>
      <trkpt lat="46.84139" lon="-1.78498">
        <ele>57</ele>
        <time>2018-04-23T03:23:55Z</time>
      </trkpt>
      <trkpt lat="46.84157" lon="-1.78535">
        <ele>57</ele>
        <time>2018-04-23T03:24:55Z</time>
      </trkpt>
      <trkpt lat="46.84316" lon="-1.78886">
        <ele>58</ele>
        <time>2018-04-23T03:25:55Z</time>
      </trkpt>
      <trkpt lat="46.84419" lon="-1.79101">
        <ele>57</ele>
        <time>2018-04-23T03:26:55Z</time>
      </trkpt>
      <trkpt lat="46.84659" lon="-1.79376">
        <ele>56</ele>
        <time>2018-04-23T03:27:55Z</time>
      </trkpt>
      <trkpt lat="46.84838" lon="-1.79647">
        <ele>54</ele>
        <time>2018-04-23T03:28:55Z</time>
      </trkpt>
      <trkpt lat="46.85084" lon="-1.79971">
        <ele>56</ele>
        <time>2018-04-23T03:29:55Z</time>
      </trkpt>
      <trkpt lat="46.85247" lon="-1.80172">
        <ele>54</ele>
        <time>2018-04-23T03:30:55Z</time>
      </trkpt>
      <trkpt lat="46.85335" lon="-1.80254">
        <ele>52</ele>
        <time>2018-04-23T03:31:55Z</time>
      </trkpt>
      <trkpt lat="46.85412" lon="-1.80352">
        <ele>51</ele>
        <time>2018-04-23T03:32:55Z</time>
      </trkpt>
      <trkpt lat="46.85576" lon="-1.80538">
        <ele>51</ele>
        <time>2018-04-23T03:33:55Z</time>
      </trkpt>
      <trkpt lat="46.85709" lon="-1.80654">
        <ele>51</ele>
        <time>2018-04-23T03:34:55Z</time>
      </trkpt>
      <trkpt lat="46.8583" lon="-1.80763">
        <ele>51</ele>
        <time>2018-04-23T03:35:55Z</time>
      </trkpt>
      <trkpt lat="46.85945" lon="-1.80862">
        <ele>49</ele>
        <time>2018-04-23T03:36:55Z</time>
      </trkpt>
      <trkpt lat="46.85987" lon="-1.80905">
        <ele>48</ele>
        <time>2018-04-23T03:37:55Z</time>
      </trkpt>
      <trkpt lat="46.8616" lon="-1.81105">
        <ele>46</ele>
        <time>2018-04-23T03:38:55Z</time>
      </trkpt>
      <trkpt lat="46.86316" lon="-1.8126">
        <ele>44</ele>
        <time>2018-04-23T03:39:55Z</time>
      </trkpt>
      <trkpt lat="46.86426" lon="-1.8135">
        <ele>43</ele>
        <time>2018-04-23T03:40:55Z</time>
      </trkpt>
      <trkpt lat="46.8668" lon="-1.81573">
        <ele>41</ele>
        <time>2018-04-23T03:41:55Z</time>
      </trkpt>
      <trkpt lat="46.86879" lon="-1.81755">
        <ele>35</ele>
        <time>2018-04-23T03:42:55Z</time>
      </trkpt>
      <trkpt lat="46.8691" lon="-1.81793">
        <ele>34</ele>
        <time>2018-04-23T03:43:55Z</time>
      </trkpt>
      <trkpt lat="46.86936" lon="-1.81842">
        <ele>32</ele>
        <time>2018-04-23T03:44:55Z</time>
      </trkpt>
      <trkpt lat="46.86949" lon="-1.81861">
        <ele>32</ele>
        <time>2018-04-23T03:45:55Z</time>
      </trkpt>
      <trkpt lat="46.86958" lon="-1.81871">
        <ele>32</ele>
        <time>2018-04-23T03:46:55Z</time>
      </trkpt>
      <trkpt lat="46.86986" lon="-1.81882">
        <ele>33</ele>
        <time>2018-04-23T03:47:55Z</time>
      </trkpt>
      <trkpt lat="46.87049" lon="-1.81881">
        <ele>34</ele>
        <time>2018-04-23T03:48:55Z</time>
      </trkpt>
      <trkpt lat="46.87107" lon="-1.81911">
        <ele>33</ele>
        <time>2018-04-23T03:49:55Z</time>
      </trkpt>
      <trkpt lat="46.87171" lon="-1.81953">
        <ele>32</ele>
        <time>2018-04-23T03:50:55Z</time>
      </trkpt>
      <trkpt lat="46.87219" lon="-1.82012">
        <ele>31</ele>
        <time>2018-04-23T03:51:55Z</time>
      </trkpt>
      <trkpt lat="46.87275" lon="-1.82121">
        <ele>32</ele>
        <time>2018-04-23T03:52:55Z</time>
      </trkpt>
      <trkpt lat="46.8738" lon="-1.82241">
        <ele>33</ele>
        <time>2018-04-23T03:53:55Z</time>
      </trkpt>
      <trkpt lat="46.87569" lon="-1.82437">
        <ele>36</ele>
        <time>2018-04-23T03:54:55Z</time>
      </trkpt>
      <trkpt lat="46.87668" lon="-1.82524">
        <ele>34</ele>
        <time>2018-04-23T03:55:55Z</time>
      </trkpt>
      <trkpt lat="46.87687" lon="-1.82526">
        <ele>34</ele>
        <time>2018-04-23T03:56:55Z</time>
      </trkpt>
      <trkpt lat="46.87799" lon="-1.82493">
        <ele>33</ele>
        <time>2018-04-23T03:57:55Z</time>
      </trkpt>
      <trkpt lat="46.87937" lon="-1.82441">
        <ele>34</ele>
        <time>2018-04-23T03:58:55Z</time>
      </trkpt>
      <trkpt lat="46.88048" lon="-1.82403">
        <ele>34</ele>
        <time>2018-04-23T03:59:55Z</time>
      </trkpt>
      <trkpt lat="46.88222" lon="-1.82368">
        <ele>33</ele>
        <time>2018-04-23T04:00:55Z</time>
      </trkpt>
      <trkpt lat="46.88387" lon="-1.8236">
        <ele>32</ele>
        <time>2018-04-23T04:01:55Z</time>
      </trkpt>
      <trkpt lat="46.88447" lon="-1.82348">
        <ele>31</ele>
        <time>2018-04-23T04:02:55Z</time>
      </trkpt>
      <trkpt lat="46.88561" lon="-1.82306">
        <ele>29</ele>
        <time>2018-04-23T04:03:55Z</time>
      </trkpt>
      <trkpt lat="46.88577" lon="-1.82308">
        <ele>28</ele>
        <time>2018-04-23T04:04:55Z</time>
      </trkpt>
      <trkpt lat="46.88584" lon="-1.82311">
        <ele>28</ele>
        <time>2018-04-23T04:05:55Z</time>
      </trkpt>
      <trkpt lat="46.88595" lon="-1.82319">
        <ele>29</ele>
        <time>2018-04-23T04:06:55Z</time>
      </trkpt>
      <trkpt lat="46.88647" lon="-1.8237">
        <ele>28</ele>
        <time>2018-04-23T04:07:55Z</time>
      </trkpt>
      <trkpt lat="46.88748" lon="-1.82393">
        <ele>26</ele>
        <time>2018-04-23T04:08:55Z</time>
      </trkpt>
      <trkpt lat="46.88778" lon="-1.8241">
        <ele>25</ele>
        <time>2018-04-23T04:09:55Z</time>
      </trkpt>
      <trkpt lat="46.88815" lon="-1.82438">
        <ele>24</ele>
        <time>2018-04-23T04:10:55Z</time>
      </trkpt>
      <trkpt lat="46.88831" lon="-1.82453">
        <ele>23</ele>
        <time>2018-04-23T04:11:55Z</time>
      </trkpt>
      <trkpt lat="46.88847" lon="-1.82479">
        <ele>23</ele>
        <time>2018-04-23T04:12:55Z</time>
      </trkpt>
      <trkpt lat="46.88898" lon="-1.82624">
        <ele>26</ele>
        <time>2018-04-23T04:13:55Z</time>
      </trkpt>
      <trkpt lat="46.88918" lon="-1.82682">
        <ele>26</ele>
        <time>2018-04-23T04:14:55Z</time>
      </trkpt>
      <trkpt lat="46.88939" lon="-1.82824">
        <ele>23</ele>
        <time>2018-04-23T04:15:55Z</time>
      </trkpt>
      <trkpt lat="46.88955" lon="-1.82914">
        <ele>23</ele>
        <time>2018-04-23T04:16:55Z</time>
      </trkpt>
      <trkpt lat="46.88962" lon="-1.82946">
        <ele>24</ele>
        <time>2018-04-23T04:17:55Z</time>
      </trkpt>
      <trkpt lat="46.88968" lon="-1.82955">
        <ele>24</ele>
        <time>2018-04-23T04:18:55Z</time>
      </trkpt>
      <trkpt lat="46.88991" lon="-1.82969">
        <ele>25</ele>
        <time>2018-04-23T04:19:55Z</time>
      </trkpt>
      <trkpt lat="46.89112" lon="-1.831">
        <ele>31</ele>
        <time>2018-04-23T04:20:55Z</time>
      </trkpt>
      <trkpt lat="46.8912" lon="-1.83103">
        <ele>31</ele>
        <time>2018-04-23T04:21:55Z</time>
      </trkpt>
      <trkpt lat="46.89131" lon="-1.83103">
        <ele>31</ele>
        <time>2018-04-23T04:22:55Z</time>
      </trkpt>
      <trkpt lat="46.89131" lon="-1.83153">
        <ele>32</ele>
        <time>2018-04-23T04:23:55Z</time>
      </trkpt>
      <trkpt lat="46.8912" lon="-1.83157">
        <ele>32</ele>
        <time>2018-04-23T04:24:55Z</time>
      </trkpt>
      <trkpt lat="46.88941" lon="-1.83351">
        <ele>27</ele>
        <time>2018-04-23T04:25:55Z</time>
      </trkpt>
      <trkpt lat="46.88937" lon="-1.83371">
        <ele>26</ele>
        <time>2018-04-23T04:26:55Z</time>
      </trkpt>
      <trkpt lat="46.88939" lon="-1.8338">
        <ele>26</ele>
        <time>2018-04-23T04:27:55Z</time>
      </trkpt>
      <trkpt lat="46.88938" lon="-1.83385">
        <ele>26</ele>
        <time>2018-04-23T04:28:55Z</time>
      </trkpt>
      <trkpt lat="46.88951" lon="-1.83399">
        <ele>26</ele>
        <time>2018-04-23T04:29:55Z</time>
      </trkpt>
      <trkpt lat="46.88956" lon="-1.83426">
        <ele>26</ele>
        <time>2018-04-23T04:30:55Z</time>
      </trkpt>
      <trkpt lat="46.88948" lon="-1.83564">
        <ele>25</ele>
        <time>2018-04-23T04:31:55Z</time>
      </trkpt>
      <trkpt lat="46.88953" lon="-1.83616">
        <ele>25</ele>
        <time>2018-04-23T04:32:55Z</time>
      </trkpt>
      <trkpt lat="46.88957" lon="-1.8364">
        <ele>25</ele>
        <time>2018-04-23T04:33:55Z</time>
      </trkpt>
      <trkpt lat="46.88958" lon="-1.83681">
        <ele>24</ele>
        <time>2018-04-23T04:34:55Z</time>
      </trkpt>
      <trkpt lat="46.88942" lon="-1.83873">
        <ele>19</ele>
        <time>2018-04-23T04:35:55Z</time>
      </trkpt>
      <trkpt lat="46.8894" lon="-1.83912">
        <ele>19</ele>
        <time>2018-04-23T04:36:55Z</time>
      </trkpt>
      <trkpt lat="46.88941" lon="-1.83927">
        <ele>19</ele>
        <time>2018-04-23T04:37:55Z</time>
      </trkpt>
      <trkpt lat="46.89" lon="-1.84224">
        <ele>17</ele>
        <time>2018-04-23T04:38:55Z</time>
      </trkpt>
      <trkpt lat="46.89023" lon="-1.84324">
        <ele>18</ele>
        <time>2018-04-23T04:39:55Z</time>
      </trkpt>
      <trkpt lat="46.89049" lon="-1.84389">
        <ele>19</ele>
        <time>2018-04-23T04:40:55Z</time>
      </trkpt>
      <trkpt lat="46.89077" lon="-1.84433">
        <ele>20</ele>
        <time>2018-04-23T04:41:55Z</time>
      </trkpt>
      <trkpt lat="46.891" lon="-1.8446">
        <ele>22</ele>
        <time>2018-04-23T04:42:55Z</time>
      </trkpt>
      <trkpt lat="46.89225" lon="-1.84582">
        <ele>25</ele>
        <time>2018-04-23T04:43:55Z</time>
      </trkpt>
      <trkpt lat="46.89228" lon="-1.84579">
        <ele>25</ele>
        <time>2018-04-23T04:44:55Z</time>
      </trkpt>
      <trkpt lat="46.89239" lon="-1.84573">
        <ele>25</ele>
        <time>2018-04-23T04:45:55Z</time>
      </trkpt>
      <trkpt lat="46.89249" lon="-1.84581">
        <ele>26</ele>
        <time>2018-04-23T04:46:55Z</time>
      </trkpt>
      <trkpt lat="46.89253" lon="-1.84597">
        <ele>26</ele>
        <time>2018-04-23T04:47:55Z</time>
      </trkpt>
      <trkpt lat="46.8925" lon="-1.84607">
        <ele>26</ele>
        <time>2018-04-23T04:48:55Z</time>
      </trkpt>
      <trkpt lat="46.89401" lon="-1.84802">
        <ele>28</ele>
        <time>2018-04-23T04:49:55Z</time>
      </trkpt>
      <trkpt lat="46.8943" lon="-1.84831">
        <ele>28</ele>
        <time>2018-04-23T04:50:55Z</time>
      </trkpt>
      <trkpt lat="46.89443" lon="-1.84852">
        <ele>28</ele>
        <time>2018-04-23T04:51:55Z</time>
      </trkpt>
      <trkpt lat="46.89449" lon="-1.84933">
        <ele>29</ele>
        <time>2018-04-23T04:52:55Z</time>
      </trkpt>
      <trkpt lat="46.89451" lon="-1.84986">
        <ele>28</ele>
        <time>2018-04-23T04:53:55Z</time>
      </trkpt>
      <trkpt lat="46.89448" lon="-1.85056">
        <ele>27</ele>
        <time>2018-04-23T04:54:55Z</time>
      </trkpt>
      <trkpt lat="46.89442" lon="-1.85101">
        <ele>27</ele>
        <time>2018-04-23T04:55:55Z</time>
      </trkpt>
      <trkpt lat="46.89421" lon="-1.85195">
        <ele>26</ele>
        <time>2018-04-23T04:56:55Z</time>
      </trkpt>
      <trkpt lat="46.89333" lon="-1.85509">
        <ele>26</ele>
        <time>2018-04-23T04:57:55Z</time>
      </trkpt>
      <trkpt lat="46.89321" lon="-1.8558">
        <ele>25</ele>
        <time>2018-04-23T04:58:55Z</time>
      </trkpt>
      <trkpt lat="46.89309" lon="-1.85773">
        <ele>24</ele>
        <time>2018-04-23T04:59:55Z</time>
      </trkpt>
      <trkpt lat="46.89309" lon="-1.85773">
        <ele>24</ele>
        <time>2018-04-23T05:00:55Z</time>
      </trkpt>
      <trkpt lat="46.89288" lon="-1.86095">
        <ele>24</ele>
        <time>2018-04-23T05:01:55Z</time>
      </trkpt>
      <trkpt lat="46.89279" lon="-1.86163">
        <ele>25</ele>
        <time>2018-04-23T05:02:55Z</time>
      </trkpt>
      <trkpt lat="46.89267" lon="-1.8622">
        <ele>24</ele>
        <time>2018-04-23T05:03:55Z</time>
      </trkpt>
      <trkpt lat="46.89076" lon="-1.868">
        <ele>16</ele>
        <time>2018-04-23T05:04:55Z</time>
      </trkpt>
      <trkpt lat="46.89059" lon="-1.869">
        <ele>16</ele>
        <time>2018-04-23T05:05:55Z</time>
      </trkpt>
      <trkpt lat="46.89051" lon="-1.87033">
        <ele>17</ele>
        <time>2018-04-23T05:06:55Z</time>
      </trkpt>
      <trkpt lat="46.89027" lon="-1.87736">
        <ele>14</ele>
        <time>2018-04-23T05:07:55Z</time>
      </trkpt>
      <trkpt lat="46.89024" lon="-1.87796">
        <ele>14</ele>
        <time>2018-04-23T05:08:55Z</time>
      </trkpt>
      <trkpt lat="46.89016" lon="-1.8785">
        <ele>14</ele>
        <time>2018-04-23T05:09:55Z</time>
      </trkpt>
      <trkpt lat="46.88995" lon="-1.87927">
        <ele>14</ele>
        <time>2018-04-23T05:10:55Z</time>
      </trkpt>
      <trkpt lat="46.88902" lon="-1.88194">
        <ele>12</ele>
        <time>2018-04-23T05:11:55Z</time>
      </trkpt>
      <trkpt lat="46.88841" lon="-1.88363">
        <ele>13</ele>
        <time>2018-04-23T05:12:55Z</time>
      </trkpt>
      <trkpt lat="46.88732" lon="-1.8868">
        <ele>17</ele>
        <time>2018-04-23T05:13:55Z</time>
      </trkpt>
      <trkpt lat="46.88681" lon="-1.88819">
        <ele>21</ele>
        <time>2018-04-23T05:14:55Z</time>
      </trkpt>
      <trkpt lat="46.88643" lon="-1.88928">
        <ele>19</ele>
        <time>2018-04-23T05:15:55Z</time>
      </trkpt>
      <trkpt lat="46.88636" lon="-1.88946">
        <ele>18</ele>
        <time>2018-04-23T05:16:55Z</time>
      </trkpt>
      <trkpt lat="46.88616" lon="-1.89017">
        <ele>16</ele>
        <time>2018-04-23T05:17:55Z</time>
      </trkpt>
      <trkpt lat="46.88612" lon="-1.89065">
        <ele>16</ele>
        <time>2018-04-23T05:18:55Z</time>
      </trkpt>
      <trkpt lat="46.88612" lon="-1.891">
        <ele>16</ele>
        <time>2018-04-23T05:19:55Z</time>
      </trkpt>
      <trkpt lat="46.88628" lon="-1.8932">
        <ele>12</ele>
        <time>2018-04-23T05:20:55Z</time>
      </trkpt>
      <trkpt lat="46.8863" lon="-1.89359">
        <ele>12</ele>
        <time>2018-04-23T05:21:55Z</time>
      </trkpt>
      <trkpt lat="46.886" lon="-1.89647">
        <ele>12</ele>
        <time>2018-04-23T05:22:55Z</time>
      </trkpt>
      <trkpt lat="46.88577" lon="-1.89901">
        <ele>12</ele>
        <time>2018-04-23T05:23:55Z</time>
      </trkpt>
      <trkpt lat="46.88575" lon="-1.89958">
        <ele>12</ele>
        <time>2018-04-23T05:24:55Z</time>
      </trkpt>
      <trkpt lat="46.88578" lon="-1.90072">
        <ele>11</ele>
        <time>2018-04-23T05:25:55Z</time>
      </trkpt>
      <trkpt lat="46.88579" lon="-1.90253">
        <ele>12</ele>
        <time>2018-04-23T05:26:55Z</time>
      </trkpt>
      <trkpt lat="46.88569" lon="-1.90433">
        <ele>13</ele>
        <time>2018-04-23T05:27:55Z</time>
      </trkpt>
      <trkpt lat="46.88538" lon="-1.90919">
        <ele>14</ele>
        <time>2018-04-23T05:28:55Z</time>
      </trkpt>
      <trkpt lat="46.88533" lon="-1.90976">
        <ele>14</ele>
        <time>2018-04-23T05:29:55Z</time>
      </trkpt>
      <trkpt lat="46.88526" lon="-1.91019">
        <ele>15</ele>
        <time>2018-04-23T05:30:55Z</time>
      </trkpt>
      <trkpt lat="46.88503" lon="-1.91113">
        <ele>15</ele>
        <time>2018-04-23T05:31:55Z</time>
      </trkpt>
      <trkpt lat="46.88471" lon="-1.91233">
        <ele>16</ele>
        <time>2018-04-23T05:32:55Z</time>
      </trkpt>
      <trkpt lat="46.88446" lon="-1.91347">
        <ele>15</ele>
        <time>2018-04-23T05:33:55Z</time>
      </trkpt>
      <trkpt lat="46.8844" lon="-1.91394">
        <ele>15</ele>
        <time>2018-04-23T05:34:55Z</time>
      </trkpt>
      <trkpt lat="46.88416" lon="-1.91898">
        <ele>14</ele>
        <time>2018-04-23T05:35:55Z</time>
      </trkpt>
      <trkpt lat="46.88417" lon="-1.91954">
        <ele>14</ele>
        <time>2018-04-23T05:36:55Z</time>
      </trkpt>
      <trkpt lat="46.88482" lon="-1.92543">
        <ele>15</ele>
        <time>2018-04-23T05:37:55Z</time>
      </trkpt>
      <trkpt lat="46.88488" lon="-1.92619">
        <ele>15</ele>
        <time>2018-04-23T05:38:55Z</time>
      </trkpt>
      <trkpt lat="46.88488" lon="-1.92667">
        <ele>15</ele>
        <time>2018-04-23T05:39:55Z</time>
      </trkpt>
      <trkpt lat="46.8848" lon="-1.9273">
        <ele>15</ele>
        <time>2018-04-23T05:40:55Z</time>
      </trkpt>
      <trkpt lat="46.88457" lon="-1.92866">
        <ele>14</ele>
        <time>2018-04-23T05:41:55Z</time>
      </trkpt>
      <trkpt lat="46.88427" lon="-1.93008">
        <ele>13</ele>
        <time>2018-04-23T05:42:55Z</time>
      </trkpt>
      <trkpt lat="46.88397" lon="-1.93131">
        <ele>13</ele>
        <time>2018-04-23T05:43:55Z</time>
      </trkpt>
      <trkpt lat="46.8838" lon="-1.93146">
        <ele>14</ele>
        <time>2018-04-23T05:44:55Z</time>
      </trkpt>
      <trkpt lat="46.88295" lon="-1.93192">
        <ele>15</ele>
        <time>2018-04-23T05:45:55Z</time>
      </trkpt>
      <trkpt lat="46.88008" lon="-1.93306">
        <ele>12</ele>
        <time>2018-04-23T05:46:55Z</time>
      </trkpt>
      <trkpt lat="46.88028" lon="-1.93375">
        <ele>12</ele>
        <time>2018-04-23T05:47:55Z</time>
      </trkpt>
      <trkpt lat="46.8806" lon="-1.93469">
        <ele>12</ele>
        <time>2018-04-23T05:48:55Z</time>
      </trkpt>
      <trkpt lat="46.88114" lon="-1.93679">
        <ele>13</ele>
        <time>2018-04-23T05:49:55Z</time>
      </trkpt>
      <trkpt lat="46.8816" lon="-1.93842">
        <ele>11</ele>
        <time>2018-04-23T05:50:55Z</time>
      </trkpt>
      <trkpt lat="46.88167" lon="-1.93895">
        <ele>11</ele>
        <time>2018-04-23T05:51:55Z</time>
      </trkpt>
      <trkpt lat="46.88173" lon="-1.94124">
        <ele>11</ele>
        <time>2018-04-23T05:52:55Z</time>
      </trkpt>
      <trkpt lat="46.88173" lon="-1.94124">
        <ele>11</ele>
        <time>2018-04-23T05:53:55Z</time>
      </trkpt>
      <trkpt lat="46.88175" lon="-1.94183">
        <ele>11</ele>
        <time>2018-04-23T05:54:55Z</time>
      </trkpt>
      <trkpt lat="46.88174" lon="-1.94215">
        <ele>11</ele>
        <time>2018-04-23T05:55:55Z</time>
      </trkpt>
      <trkpt lat="46.88161" lon="-1.94425">
        <ele>9</ele>
        <time>2018-04-23T05:56:55Z</time>
      </trkpt>
      <trkpt lat="46.88105" lon="-1.94421">
        <ele>9</ele>
        <time>2018-04-23T05:57:55Z</time>
      </trkpt>
      <trkpt lat="46.88084" lon="-1.94422">
        <ele>9</ele>
        <time>2018-04-23T05:58:55Z</time>
      </trkpt>
      <trkpt lat="46.88041" lon="-1.94428">
        <ele>10</ele>
        <time>2018-04-23T05:59:55Z</time>
      </trkpt>
      <trkpt lat="46.87999" lon="-1.94441">
        <ele>10</ele>
        <time>2018-04-23T06:00:55Z</time>
      </trkpt>
      <trkpt lat="46.87906" lon="-1.94496">
        <ele>12</ele>
        <time>2018-04-23T06:01:55Z</time>
      </trkpt>
      <trkpt lat="46.87883" lon="-1.94512">
        <ele>12</ele>
        <time>2018-04-23T06:02:55Z</time>
      </trkpt>
      <trkpt lat="46.87851" lon="-1.94539">
        <ele>12</ele>
        <time>2018-04-23T06:03:55Z</time>
      </trkpt>
      <trkpt lat="46.87795" lon="-1.94579">
        <ele>12</ele>
        <time>2018-04-23T06:04:55Z</time>
      </trkpt>
      <trkpt lat="46.87751" lon="-1.94602">
        <ele>12</ele>
        <time>2018-04-23T06:05:55Z</time>
      </trkpt>
      <trkpt lat="46.87662" lon="-1.94631">
        <ele>14</ele>
        <time>2018-04-23T06:06:55Z</time>
      </trkpt>
      <trkpt lat="46.87625" lon="-1.94645">
        <ele>15</ele>
        <time>2018-04-23T06:07:55Z</time>
      </trkpt>
      <trkpt lat="46.87574" lon="-1.94669">
        <ele>16</ele>
        <time>2018-04-23T06:08:55Z</time>
      </trkpt>
      <trkpt lat="46.87539" lon="-1.94681">
        <ele>15</ele>
        <time>2018-04-23T06:09:55Z</time>
      </trkpt>
      <trkpt lat="46.87468" lon="-1.94694">
        <ele>15</ele>
        <time>2018-04-23T06:10:55Z</time>
      </trkpt>
      <trkpt lat="46.87446" lon="-1.94703">
        <ele>14</ele>
        <time>2018-04-23T06:11:55Z</time>
      </trkpt>
      <trkpt lat="46.87443" lon="-1.94696">
        <ele>15</ele>
        <time>2018-04-23T06:12:55Z</time>
      </trkpt>
      <trkpt lat="46.87281" lon="-1.94784">
        <ele>11</ele>
        <time>2018-04-23T06:13:55Z</time>
      </trkpt>
      <trkpt lat="46.87206" lon="-1.94822">
        <ele>10</ele>
        <time>2018-04-23T06:14:55Z</time>
      </trkpt>
      <trkpt lat="46.87147" lon="-1.94856">
        <ele>9</ele>
        <time>2018-04-23T06:15:55Z</time>
      </trkpt>
      <trkpt lat="46.87094" lon="-1.94883">
        <ele>8</ele>
        <time>2018-04-23T06:16:55Z</time>
      </trkpt>
      <trkpt lat="46.86873" lon="-1.94974">
        <ele>5</ele>
        <time>2018-04-23T06:17:55Z</time>
      </trkpt>
      <trkpt lat="46.86817" lon="-1.94985">
        <ele>5</ele>
        <time>2018-04-23T06:18:55Z</time>
      </trkpt>
      <trkpt lat="46.86792" lon="-1.94986">
        <ele>5</ele>
        <time>2018-04-23T06:19:55Z</time>
      </trkpt>
      <trkpt lat="46.86791" lon="-1.94993">
        <ele>5</ele>
        <time>2018-04-23T06:20:55Z</time>
      </trkpt>
      <trkpt lat="46.86789" lon="-1.94999">
        <ele>5</ele>
        <time>2018-04-23T06:21:55Z</time>
      </trkpt>
      <trkpt lat="46.86785" lon="-1.95003">
        <ele>5</ele>
        <time>2018-04-23T06:22:55Z</time>
      </trkpt>
      <trkpt lat="46.86776" lon="-1.95002">
        <ele>5</ele>
        <time>2018-04-23T06:23:55Z</time>
      </trkpt>
      <trkpt lat="46.86771" lon="-1.94994">
        <ele>5</ele>
        <time>2018-04-23T06:24:55Z</time>
      </trkpt>
      <trkpt lat="46.8677" lon="-1.94989">
        <ele>5</ele>
        <time>2018-04-23T06:25:55Z</time>
      </trkpt>
      <trkpt lat="46.86724" lon="-1.95001">
        <ele>5</ele>
        <time>2018-04-23T06:26:55Z</time>
      </trkpt>
      <trkpt lat="46.86619" lon="-1.95045">
        <ele>4</ele>
        <time>2018-04-23T06:27:55Z</time>
      </trkpt>
      <trkpt lat="46.86545" lon="-1.95067">
        <ele>3</ele>
        <time>2018-04-23T06:28:55Z</time>
      </trkpt>
      <trkpt lat="46.86534" lon="-1.95078">
        <ele>3</ele>
        <time>2018-04-23T06:29:55Z</time>
      </trkpt>
      <trkpt lat="46.86526" lon="-1.95078">
        <ele>3</ele>
        <time>2018-04-23T06:30:55Z</time>
      </trkpt>
      <trkpt lat="46.86521" lon="-1.95072">
        <ele>3</ele>
        <time>2018-04-23T06:31:55Z</time>
      </trkpt>
      <trkpt lat="46.86509" lon="-1.95074">
        <ele>3</ele>
        <time>2018-04-23T06:32:55Z</time>
      </trkpt>
      <trkpt lat="46.86489" lon="-1.95083">
        <ele>3</ele>
        <time>2018-04-23T06:33:55Z</time>
      </trkpt>
      <trkpt lat="46.86411" lon="-1.95123">
        <ele>2</ele>
        <time>2018-04-23T06:34:55Z</time>
      </trkpt>
      <trkpt lat="46.86411" lon="-1.95123">
        <ele>2</ele>
        <time>2018-04-23T06:35:55Z</time>
      </trkpt>
      <trkpt lat="46.86386" lon="-1.95136">
        <ele>2</ele>
        <time>2018-04-23T06:36:55Z</time>
      </trkpt>
      <trkpt lat="46.86352" lon="-1.95146">
        <ele>3</ele>
        <time>2018-04-23T06:37:55Z</time>
      </trkpt>
      <trkpt lat="46.86184" lon="-1.95169">
        <ele>1</ele>
        <time>2018-04-23T06:38:55Z</time>
      </trkpt>
      <trkpt lat="46.86151" lon="-1.95171">
        <ele>1</ele>
        <time>2018-04-23T06:39:55Z</time>
      </trkpt>
      <trkpt lat="46.86094" lon="-1.95163">
        <ele>3</ele>
        <time>2018-04-23T06:40:55Z</time>
      </trkpt>
      <trkpt lat="46.86059" lon="-1.95167">
        <ele>4</ele>
        <time>2018-04-23T06:41:55Z</time>
      </trkpt>
      <trkpt lat="46.86054" lon="-1.95172">
        <ele>4</ele>
        <time>2018-04-23T06:42:55Z</time>
      </trkpt>
      <trkpt lat="46.86044" lon="-1.95189">
        <ele>5</ele>
        <time>2018-04-23T06:43:55Z</time>
      </trkpt>
      <trkpt lat="46.86042" lon="-1.952">
        <ele>5</ele>
        <time>2018-04-23T06:44:55Z</time>
      </trkpt>
      <trkpt lat="46.8604" lon="-1.95247">
        <ele>5</ele>
        <time>2018-04-23T06:45:55Z</time>
      </trkpt>
      <trkpt lat="46.86041" lon="-1.95337">
        <ele>4</ele>
        <time>2018-04-23T06:46:55Z</time>
      </trkpt>
      <trkpt lat="46.86047" lon="-1.95517">
        <ele>4</ele>
        <time>2018-04-23T06:47:55Z</time>
      </trkpt>
      <trkpt lat="46.8606" lon="-1.95638">
        <ele>4</ele>
        <time>2018-04-23T06:48:55Z</time>
      </trkpt>
      <trkpt lat="46.8606" lon="-1.95656">
        <ele>4</ele>
        <time>2018-04-23T06:49:55Z</time>
      </trkpt>
      <trkpt lat="46.86056" lon="-1.95688">
        <ele>4</ele>
        <time>2018-04-23T06:50:55Z</time>
      </trkpt>
      <trkpt lat="46.86043" lon="-1.95712">
        <ele>4</ele>
        <time>2018-04-23T06:51:55Z</time>
      </trkpt>
      <trkpt lat="46.8601" lon="-1.95754">
        <ele>4</ele>
        <time>2018-04-23T06:52:55Z</time>
      </trkpt>
      <trkpt lat="46.85994" lon="-1.95782">
        <ele>4</ele>
        <time>2018-04-23T06:53:55Z</time>
      </trkpt>
      <trkpt lat="46.8597" lon="-1.95832">
        <ele>4</ele>
        <time>2018-04-23T06:54:55Z</time>
      </trkpt>
      <trkpt lat="46.85964" lon="-1.95849">
        <ele>4</ele>
        <time>2018-04-23T06:55:55Z</time>
      </trkpt>
      <trkpt lat="46.85958" lon="-1.95859">
        <ele>4</ele>
        <time>2018-04-23T06:56:55Z</time>
      </trkpt>
      <trkpt lat="46.85942" lon="-1.95874">
        <ele>4</ele>
        <time>2018-04-23T06:57:55Z</time>
      </trkpt>
      <trkpt lat="46.85936" lon="-1.95886">
        <ele>4</ele>
        <time>2018-04-23T06:58:55Z</time>
      </trkpt>
      <trkpt lat="46.85835" lon="-1.9603">
        <ele>2</ele>
        <time>2018-04-23T06:59:55Z</time>
      </trkpt>
      <trkpt lat="46.85759" lon="-1.96182">
        <ele>1</ele>
        <time>2018-04-23T07:00:55Z</time>
      </trkpt>
      <trkpt lat="46.85743" lon="-1.96219">
        <ele>1</ele>
        <time>2018-04-23T07:01:55Z</time>
      </trkpt>
      <trkpt lat="46.85721" lon="-1.96281">
        <ele>1.9</ele>
        <time>2018-04-23T07:02:55Z</time>
      </trkpt>
      <trkpt lat="46.85712" lon="-1.96293">
        <ele>1.7</ele>
        <time>2018-04-23T07:03:55Z</time>
      </trkpt>
      <trkpt lat="46.85678" lon="-1.96322">
        <ele>2</ele>
        <time>2018-04-23T07:04:55Z</time>
      </trkpt>
      <trkpt lat="46.85669" lon="-1.96332">
        <ele>2</ele>
        <time>2018-04-23T07:05:55Z</time>
      </trkpt>
      <trkpt lat="46.85645" lon="-1.96365">
        <ele>1.8</ele>
        <time>2018-04-23T07:06:55Z</time>
      </trkpt>
      <trkpt lat="46.85632" lon="-1.96392">
        <ele>1.9</ele>
        <time>2018-04-23T07:07:55Z</time>
      </trkpt>
      <trkpt lat="46.85626" lon="-1.96412">
        <ele>1.6</ele>
        <time>2018-04-23T07:08:55Z</time>
      </trkpt>
      <trkpt lat="46.85624" lon="-1.96429">
        <ele>1.5</ele>
        <time>2018-04-23T07:09:55Z</time>
      </trkpt>
      <trkpt lat="46.85624" lon="-1.96469">
        <ele>1.5</ele>
        <time>2018-04-23T07:10:55Z</time>
      </trkpt>
      <trkpt lat="46.85622" lon="-1.96489">
        <ele>1.8</ele>
        <time>2018-04-23T07:11:55Z</time>
      </trkpt>
      <trkpt lat="46.85615" lon="-1.96508">
        <ele>1.7</ele>
        <time>2018-04-23T07:12:55Z</time>
      </trkpt>
      <trkpt lat="46.85606" lon="-1.96518">
        <ele>1.5</ele>
        <time>2018-04-23T07:13:55Z</time>
      </trkpt>
      <trkpt lat="46.85577" lon="-1.96533">
        <ele>2</ele>
        <time>2018-04-23T07:14:55Z</time>
      </trkpt>
      <trkpt lat="46.85563" lon="-1.96545">
        <ele>2</ele>
        <time>2018-04-23T07:15:55Z</time>
      </trkpt>
      <trkpt lat="46.85553" lon="-1.96558">
        <ele>2</ele>
        <time>2018-04-23T07:16:55Z</time>
      </trkpt>
      <trkpt lat="46.85542" lon="-1.9658">
        <ele>1.6</ele>
        <time>2018-04-23T07:17:55Z</time>
      </trkpt>
      <trkpt lat="46.85505" lon="-1.9669">
        <ele>2</ele>
        <time>2018-04-23T07:18:55Z</time>
      </trkpt>
      <trkpt lat="46.85498" lon="-1.96712">
        <ele>1</ele>
        <time>2018-04-23T07:19:55Z</time>
      </trkpt>
      <trkpt lat="46.85495" lon="-1.96733">
        <ele>1</ele>
        <time>2018-04-23T07:20:55Z</time>
      </trkpt>
      <trkpt lat="46.85496" lon="-1.9676">
        <ele>1</ele>
        <time>2018-04-23T07:21:55Z</time>
      </trkpt>
      <trkpt lat="46.85499" lon="-1.96787">
        <ele>1</ele>
        <time>2018-04-23T07:22:55Z</time>
      </trkpt>
      <trkpt lat="46.85505" lon="-1.9681">
        <ele>2</ele>
        <time>2018-04-23T07:23:55Z</time>
      </trkpt>
      <trkpt lat="46.85519" lon="-1.9685">
        <ele>2</ele>
        <time>2018-04-23T07:24:55Z</time>
      </trkpt>
      <trkpt lat="46.85525" lon="-1.96876">
        <ele>1</ele>
        <time>2018-04-23T07:25:55Z</time>
      </trkpt>
      <trkpt lat="46.85539" lon="-1.96997">
        <ele>1</ele>
        <time>2018-04-23T07:26:55Z</time>
      </trkpt>
      <trkpt lat="46.8554" lon="-1.97019">
        <ele>1</ele>
        <time>2018-04-23T07:27:55Z</time>
      </trkpt>
      <trkpt lat="46.85538" lon="-1.9704">
        <ele>1</ele>
        <time>2018-04-23T07:28:55Z</time>
      </trkpt>
      <trkpt lat="46.85481" lon="-1.97205">
        <ele>3</ele>
        <time>2018-04-23T07:29:55Z</time>
      </trkpt>
      <trkpt lat="46.85444" lon="-1.97329">
        <ele>1</ele>
        <time>2018-04-23T07:30:55Z</time>
      </trkpt>
      <trkpt lat="46.85431" lon="-1.97361">
        <ele>1</ele>
        <time>2018-04-23T07:31:55Z</time>
      </trkpt>
      <trkpt lat="46.85416" lon="-1.97386">
        <ele>1</ele>
        <time>2018-04-23T07:32:55Z</time>
      </trkpt>
      <trkpt lat="46.85391" lon="-1.97411">
        <ele>1</ele>
        <time>2018-04-23T07:33:55Z</time>
      </trkpt>
      <trkpt lat="46.85377" lon="-1.97421">
        <ele>1</ele>
        <time>2018-04-23T07:34:55Z</time>
      </trkpt>
      <trkpt lat="46.85294" lon="-1.9745">
        <ele>1</ele>
        <time>2018-04-23T07:35:55Z</time>
      </trkpt>
      <trkpt lat="46.85282" lon="-1.97457">
        <ele>1</ele>
        <time>2018-04-23T07:36:55Z</time>
      </trkpt>
      <trkpt lat="46.8527" lon="-1.97471">
        <ele>1</ele>
        <time>2018-04-23T07:37:55Z</time>
      </trkpt>
      <trkpt lat="46.85224" lon="-1.9754">
        <ele>1</ele>
        <time>2018-04-23T07:38:55Z</time>
      </trkpt>
      <trkpt lat="46.85207" lon="-1.97558">
        <ele>1</ele>
        <time>2018-04-23T07:39:55Z</time>
      </trkpt>
      <trkpt lat="46.84978" lon="-1.97748">
        <ele>1</ele>
        <time>2018-04-23T07:40:55Z</time>
      </trkpt>
      <trkpt lat="46.84948" lon="-1.97777">
        <ele>2</ele>
        <time>2018-04-23T07:41:55Z</time>
      </trkpt>
      <trkpt lat="46.84835" lon="-1.97938">
        <ele>2</ele>
        <time>2018-04-23T07:42:55Z</time>
      </trkpt>
      <trkpt lat="46.84776" lon="-1.9803">
        <ele>1.9</ele>
        <time>2018-04-23T07:43:55Z</time>
      </trkpt>
      <trkpt lat="46.84745" lon="-1.98073">
        <ele>1.7</ele>
        <time>2018-04-23T07:44:55Z</time>
      </trkpt>
      <trkpt lat="46.84719" lon="-1.98099">
        <ele>2</ele>
        <time>2018-04-23T07:45:55Z</time>
      </trkpt>
      <trkpt lat="46.84682" lon="-1.98123">
        <ele>1.8</ele>
        <time>2018-04-23T07:46:55Z</time>
      </trkpt>
      <trkpt lat="46.84674" lon="-1.98133">
        <ele>1.8</ele>
        <time>2018-04-23T07:47:55Z</time>
      </trkpt>
      <trkpt lat="46.84665" lon="-1.98148">
        <ele>1.7</ele>
        <time>2018-04-23T07:48:55Z</time>
      </trkpt>
      <trkpt lat="46.84656" lon="-1.98169">
        <ele>1.4</ele>
        <time>2018-04-23T07:49:55Z</time>
      </trkpt>
      <trkpt lat="46.84641" lon="-1.98209">
        <ele>1</ele>
        <time>2018-04-23T07:50:55Z</time>
      </trkpt>
      <trkpt lat="46.84635" lon="-1.98221">
        <ele>1</ele>
        <time>2018-04-23T07:51:55Z</time>
      </trkpt>
      <trkpt lat="46.8461" lon="-1.98251">
        <ele>1</ele>
        <time>2018-04-23T07:52:55Z</time>
      </trkpt>
      <trkpt lat="46.84598" lon="-1.98268">
        <ele>1</ele>
        <time>2018-04-23T07:53:55Z</time>
      </trkpt>
      <trkpt lat="46.84564" lon="-1.98339">
        <ele>2</ele>
        <time>2018-04-23T07:54:55Z</time>
      </trkpt>
      <trkpt lat="46.84556" lon="-1.98365">
        <ele>1</ele>
        <time>2018-04-23T07:55:55Z</time>
      </trkpt>
      <trkpt lat="46.84552" lon="-1.98391">
        <ele>1</ele>
        <time>2018-04-23T07:56:55Z</time>
      </trkpt>
      <trkpt lat="46.84551" lon="-1.98451">
        <ele>1</ele>
        <time>2018-04-23T07:57:55Z</time>
      </trkpt>
      <trkpt lat="46.84549" lon="-1.98474">
        <ele>1</ele>
        <time>2018-04-23T07:58:55Z</time>
      </trkpt>
      <trkpt lat="46.84545" lon="-1.98489">
        <ele>1</ele>
        <time>2018-04-23T07:59:55Z</time>
      </trkpt>
      <trkpt lat="46.8451" lon="-1.98572">
        <ele>2</ele>
        <time>2018-04-23T08:00:55Z</time>
      </trkpt>
      <trkpt lat="46.84458" lon="-1.98685">
        <ele>1</ele>
        <time>2018-04-23T08:01:55Z</time>
      </trkpt>
      <trkpt lat="46.84445" lon="-1.98704">
        <ele>1</ele>
        <time>2018-04-23T08:02:55Z</time>
      </trkpt>
      <trkpt lat="46.84426" lon="-1.98723">
        <ele>1</ele>
        <time>2018-04-23T08:03:55Z</time>
      </trkpt>
      <trkpt lat="46.84335" lon="-1.98771">
        <ele>1</ele>
        <time>2018-04-23T08:04:55Z</time>
      </trkpt>
      <trkpt lat="46.84308" lon="-1.9878">
        <ele>1</ele>
        <time>2018-04-23T08:05:55Z</time>
      </trkpt>
      <trkpt lat="46.84146" lon="-1.98816">
        <ele>1</ele>
        <time>2018-04-23T08:06:55Z</time>
      </trkpt>
      <trkpt lat="46.84072" lon="-1.98842">
        <ele>1</ele>
        <time>2018-04-23T08:07:55Z</time>
      </trkpt>
      <trkpt lat="46.84002" lon="-1.98871">
        <ele>1</ele>
        <time>2018-04-23T08:08:55Z</time>
      </trkpt>
      <trkpt lat="46.83955" lon="-1.98897">
        <ele>1.6</ele>
        <time>2018-04-23T08:09:55Z</time>
      </trkpt>
      <trkpt lat="46.83716" lon="-1.99002">
        <ele>2</ele>
        <time>2018-04-23T08:10:55Z</time>
      </trkpt>
      <trkpt lat="46.83553" lon="-1.99083">
        <ele>2</ele>
        <time>2018-04-23T08:11:55Z</time>
      </trkpt>
      <trkpt lat="46.83469" lon="-1.99128">
        <ele>1</ele>
        <time>2018-04-23T08:12:55Z</time>
      </trkpt>
      <trkpt lat="46.83351" lon="-1.99204">
        <ele>1</ele>
        <time>2018-04-23T08:13:55Z</time>
      </trkpt>
      <trkpt lat="46.8332" lon="-1.99218">
        <ele>1</ele>
        <time>2018-04-23T08:14:55Z</time>
      </trkpt>
      <trkpt lat="46.83195" lon="-1.99257">
        <ele>1</ele>
        <time>2018-04-23T08:15:55Z</time>
      </trkpt>
      <trkpt lat="46.83134" lon="-1.9927">
        <ele>1</ele>
        <time>2018-04-23T08:16:55Z</time>
      </trkpt>
      <trkpt lat="46.83104" lon="-1.9928">
        <ele>1</ele>
        <time>2018-04-23T08:17:55Z</time>
      </trkpt>
      <trkpt lat="46.83079" lon="-1.99295">
        <ele>1</ele>
        <time>2018-04-23T08:18:55Z</time>
      </trkpt>
      <trkpt lat="46.83072" lon="-1.99302">
        <ele>1</ele>
        <time>2018-04-23T08:19:55Z</time>
      </trkpt>
      <trkpt lat="46.83072" lon="-1.99302">
        <ele>1</ele>
        <time>2018-04-23T08:20:55Z</time>
      </trkpt>
      <trkpt lat="46.83049" lon="-1.99324">
        <ele>1</ele>
        <time>2018-04-23T08:21:55Z</time>
      </trkpt>
      <trkpt lat="46.82977" lon="-1.99402">
        <ele>1</ele>
        <time>2018-04-23T08:22:55Z</time>
      </trkpt>
      <trkpt lat="46.82925" lon="-1.99455">
        <ele>1</ele>
        <time>2018-04-23T08:23:55Z</time>
      </trkpt>
      <trkpt lat="46.82908" lon="-1.99464">
        <ele>2</ele>
        <time>2018-04-23T08:24:55Z</time>
      </trkpt>
      <trkpt lat="46.82889" lon="-1.99468">
        <ele>2</ele>
        <time>2018-04-23T08:25:55Z</time>
      </trkpt>
      <trkpt lat="46.82823" lon="-1.99461">
        <ele>2.2</ele>
        <time>2018-04-23T08:26:55Z</time>
      </trkpt>
      <trkpt lat="46.82785" lon="-1.99468">
        <ele>2.2</ele>
        <time>2018-04-23T08:27:55Z</time>
      </trkpt>
      <trkpt lat="46.82638" lon="-1.99501">
        <ele>2</ele>
        <time>2018-04-23T08:28:55Z</time>
      </trkpt>
      <trkpt lat="46.82618" lon="-1.99503">
        <ele>2</ele>
        <time>2018-04-23T08:29:55Z</time>
      </trkpt>
      <trkpt lat="46.826" lon="-1.99502">
        <ele>2</ele>
        <time>2018-04-23T08:30:55Z</time>
      </trkpt>
      <trkpt lat="46.82523" lon="-1.99482">
        <ele>2</ele>
        <time>2018-04-23T08:31:55Z</time>
      </trkpt>
      <trkpt lat="46.82511" lon="-1.99479">
        <ele>2</ele>
        <time>2018-04-23T08:32:55Z</time>
      </trkpt>
      <trkpt lat="46.82501" lon="-1.9948">
        <ele>2</ele>
        <time>2018-04-23T08:33:55Z</time>
      </trkpt>
      <trkpt lat="46.82487" lon="-1.99484">
        <ele>1</ele>
        <time>2018-04-23T08:34:55Z</time>
      </trkpt>
      <trkpt lat="46.82481" lon="-1.99489">
        <ele>2</ele>
        <time>2018-04-23T08:35:55Z</time>
      </trkpt>
      <trkpt lat="46.82464" lon="-1.99514">
        <ele>1</ele>
        <time>2018-04-23T08:36:55Z</time>
      </trkpt>
      <trkpt lat="46.82451" lon="-1.99539">
        <ele>1</ele>
        <time>2018-04-23T08:37:55Z</time>
      </trkpt>
      <trkpt lat="46.82444" lon="-1.99563">
        <ele>1</ele>
        <time>2018-04-23T08:38:55Z</time>
      </trkpt>
      <trkpt lat="46.82446" lon="-1.9957">
        <ele>1</ele>
        <time>2018-04-23T08:39:55Z</time>
      </trkpt>
      <trkpt lat="46.82447" lon="-1.99577">
        <ele>2</ele>
        <time>2018-04-23T08:40:55Z</time>
      </trkpt>
      <trkpt lat="46.82445" lon="-1.99584">
        <ele>2</ele>
        <time>2018-04-23T08:41:55Z</time>
      </trkpt>
      <trkpt lat="46.82442" lon="-1.99589">
        <ele>2</ele>
        <time>2018-04-23T08:42:55Z</time>
      </trkpt>
      <trkpt lat="46.82437" lon="-1.99594">
        <ele>2</ele>
        <time>2018-04-23T08:43:55Z</time>
      </trkpt>
      <trkpt lat="46.82433" lon="-1.99594">
        <ele>2</ele>
        <time>2018-04-23T08:44:55Z</time>
      </trkpt>
      <trkpt lat="46.82425" lon="-1.99588">
        <ele>2</ele>
        <time>2018-04-23T08:45:55Z</time>
      </trkpt>
      <trkpt lat="46.82421" lon="-1.99576">
        <ele>2</ele>
        <time>2018-04-23T08:46:55Z</time>
      </trkpt>
      <trkpt lat="46.82417" lon="-1.99573">
        <ele>2</ele>
        <time>2018-04-23T08:47:55Z</time>
      </trkpt>
      <trkpt lat="46.82315" lon="-1.99518">
        <ele>2</ele>
        <time>2018-04-23T08:48:55Z</time>
      </trkpt>
      <trkpt lat="46.8225" lon="-1.99473">
        <ele>2</ele>
        <time>2018-04-23T08:49:55Z</time>
      </trkpt>
      <trkpt lat="46.82181" lon="-1.99421">
        <ele>1</ele>
        <time>2018-04-23T08:50:55Z</time>
      </trkpt>
      <trkpt lat="46.8212" lon="-1.99381">
        <ele>1</ele>
        <time>2018-04-23T08:51:55Z</time>
      </trkpt>
      <trkpt lat="46.82" lon="-1.99339">
        <ele>2</ele>
        <time>2018-04-23T08:52:55Z</time>
      </trkpt>
      <trkpt lat="46.81927" lon="-1.99305">
        <ele>2</ele>
        <time>2018-04-23T08:53:55Z</time>
      </trkpt>
      <trkpt lat="46.8191" lon="-1.99308">
        <ele>2</ele>
        <time>2018-04-23T08:54:55Z</time>
      </trkpt>
      <trkpt lat="46.81904" lon="-1.99311">
        <ele>2</ele>
        <time>2018-04-23T08:55:55Z</time>
      </trkpt>
      <trkpt lat="46.81896" lon="-1.99306">
        <ele>2</ele>
        <time>2018-04-23T08:56:55Z</time>
      </trkpt>
      <trkpt lat="46.81894" lon="-1.993">
        <ele>2</ele>
        <time>2018-04-23T08:57:55Z</time>
      </trkpt>
      <trkpt lat="46.81885" lon="-1.99291">
        <ele>2</ele>
        <time>2018-04-23T08:58:55Z</time>
      </trkpt>
      <trkpt lat="46.81867" lon="-1.99279">
        <ele>2</ele>
        <time>2018-04-23T08:59:55Z</time>
      </trkpt>
      <trkpt lat="46.81859" lon="-1.99276">
        <ele>2</ele>
        <time>2018-04-23T09:00:55Z</time>
      </trkpt>
      <trkpt lat="46.81714" lon="-1.9924">
        <ele>1</ele>
        <time>2018-04-23T09:01:55Z</time>
      </trkpt>
      <trkpt lat="46.81657" lon="-1.99222">
        <ele>2</ele>
        <time>2018-04-23T09:02:55Z</time>
      </trkpt>
      <trkpt lat="46.81621" lon="-1.99202">
        <ele>2</ele>
        <time>2018-04-23T09:03:55Z</time>
      </trkpt>
      <trkpt lat="46.81591" lon="-1.99177">
        <ele>1</ele>
        <time>2018-04-23T09:04:55Z</time>
      </trkpt>
      <trkpt lat="46.81529" lon="-1.99117">
        <ele>2</ele>
        <time>2018-04-23T09:05:55Z</time>
      </trkpt>
      <trkpt lat="46.81387" lon="-1.99263">
        <ele>1</ele>
        <time>2018-04-23T09:06:55Z</time>
      </trkpt>
      <trkpt lat="46.8124" lon="-1.99417">
        <ele>2</ele>
        <time>2018-04-23T09:07:55Z</time>
      </trkpt>
      <trkpt lat="46.8124" lon="-1.99417">
        <ele>2</ele>
        <time>2018-04-23T09:08:55Z</time>
      </trkpt>
      <trkpt lat="46.8102" lon="-1.99642">
        <ele>1</ele>
        <time>2018-04-23T09:09:55Z</time>
      </trkpt>
      <trkpt lat="46.80889" lon="-1.99771">
        <ele>1</ele>
        <time>2018-04-23T09:10:55Z</time>
      </trkpt>
      <trkpt lat="46.80408" lon="-2.00266">
        <ele>2</ele>
        <time>2018-04-23T09:11:55Z</time>
      </trkpt>
      <trkpt lat="46.80277" lon="-2.00396">
        <ele>3</ele>
        <time>2018-04-23T09:12:55Z</time>
      </trkpt>
      <trkpt lat="46.80207" lon="-2.0047">
        <ele>2</ele>
        <time>2018-04-23T09:13:55Z</time>
      </trkpt>
      <trkpt lat="46.80061" lon="-2.00633">
        <ele>1</ele>
        <time>2018-04-23T09:14:55Z</time>
      </trkpt>
      <trkpt lat="46.79957" lon="-2.00737">
        <ele>1</ele>
        <time>2018-04-23T09:15:55Z</time>
      </trkpt>
      <trkpt lat="46.79902" lon="-2.00782">
        <ele>1</ele>
        <time>2018-04-23T09:16:55Z</time>
      </trkpt>
      <trkpt lat="46.79794" lon="-2.00882">
        <ele>1</ele>
        <time>2018-04-23T09:17:55Z</time>
      </trkpt>
      <trkpt lat="46.79763" lon="-2.00919">
        <ele>2</ele>
        <time>2018-04-23T09:18:55Z</time>
      </trkpt>
      <trkpt lat="46.79735" lon="-2.0095">
        <ele>1</ele>
        <time>2018-04-23T09:19:55Z</time>
      </trkpt>
      <trkpt lat="46.79721" lon="-2.00977">
        <ele>1</ele>
        <time>2018-04-23T09:20:55Z</time>
      </trkpt>
      <trkpt lat="46.79695" lon="-2.01002">
        <ele>2</ele>
        <time>2018-04-23T09:21:55Z</time>
      </trkpt>
      <trkpt lat="46.79611" lon="-2.01066">
        <ele>1</ele>
        <time>2018-04-23T09:22:55Z</time>
      </trkpt>
      <trkpt lat="46.79607" lon="-2.01076">
        <ele>1</ele>
        <time>2018-04-23T09:23:55Z</time>
      </trkpt>
      <trkpt lat="46.79601" lon="-2.01081">
        <ele>1</ele>
        <time>2018-04-23T09:24:55Z</time>
      </trkpt>
      <trkpt lat="46.79593" lon="-2.01083">
        <ele>1</ele>
        <time>2018-04-23T09:25:55Z</time>
      </trkpt>
      <trkpt lat="46.79586" lon="-2.01078">
        <ele>1</ele>
        <time>2018-04-23T09:26:55Z</time>
      </trkpt>
      <trkpt lat="46.79582" lon="-2.01073">
        <ele>1</ele>
        <time>2018-04-23T09:27:55Z</time>
      </trkpt>
      <trkpt lat="46.79573" lon="-2.01072">
        <ele>1</ele>
        <time>2018-04-23T09:28:55Z</time>
      </trkpt>
      <trkpt lat="46.7956" lon="-2.01063">
        <ele>1</ele>
        <time>2018-04-23T09:29:55Z</time>
      </trkpt>
      <trkpt lat="46.7955" lon="-2.01051">
        <ele>1</ele>
        <time>2018-04-23T09:30:55Z</time>
      </trkpt>
      <trkpt lat="46.79531" lon="-2.01004">
        <ele>1</ele>
        <time>2018-04-23T09:31:55Z</time>
      </trkpt>
      <trkpt lat="46.7951" lon="-2.00965">
        <ele>1</ele>
        <time>2018-04-23T09:32:55Z</time>
      </trkpt>
      <trkpt lat="46.79482" lon="-2.00921">
        <ele>2</ele>
        <time>2018-04-23T09:33:55Z</time>
      </trkpt>
      <trkpt lat="46.7943" lon="-2.00851">
        <ele>2</ele>
        <time>2018-04-23T09:34:55Z</time>
      </trkpt>
      <trkpt lat="46.79348" lon="-2.00762">
        <ele>2</ele>
        <time>2018-04-23T09:35:55Z</time>
      </trkpt>
      <trkpt lat="46.79307" lon="-2.00703">
        <ele>2</ele>
        <time>2018-04-23T09:36:55Z</time>
      </trkpt>
      <trkpt lat="46.79293" lon="-2.00673">
        <ele>2</ele>
        <time>2018-04-23T09:37:55Z</time>
      </trkpt>
      <trkpt lat="46.79283" lon="-2.00632">
        <ele>1</ele>
        <time>2018-04-23T09:38:55Z</time>
      </trkpt>
      <trkpt lat="46.79274" lon="-2.00579">
        <ele>1</ele>
        <time>2018-04-23T09:39:55Z</time>
      </trkpt>
      <trkpt lat="46.79254" lon="-2.00523">
        <ele>2</ele>
        <time>2018-04-23T09:40:55Z</time>
      </trkpt>
      <trkpt lat="46.79216" lon="-2.00427">
        <ele>2</ele>
        <time>2018-04-23T09:41:55Z</time>
      </trkpt>
      <trkpt lat="46.792" lon="-2.004">
        <ele>2</ele>
        <time>2018-04-23T09:42:55Z</time>
      </trkpt>
      <trkpt lat="46.79174" lon="-2.00367">
        <ele>2</ele>
        <time>2018-04-23T09:43:55Z</time>
      </trkpt>
      <trkpt lat="46.79174" lon="-2.00367">
        <ele>2</ele>
        <time>2018-04-23T09:44:55Z</time>
      </trkpt>
      <trkpt lat="46.79161" lon="-2.00357">
        <ele>1</ele>
        <time>2018-04-23T09:45:55Z</time>
      </trkpt>
      <trkpt lat="46.79138" lon="-2.00349">
        <ele>1</ele>
        <time>2018-04-23T09:46:55Z</time>
      </trkpt>
      <trkpt lat="46.79044" lon="-2.00344">
        <ele>1</ele>
        <time>2018-04-23T09:47:55Z</time>
      </trkpt>
      <trkpt lat="46.7901" lon="-2.0034">
        <ele>1</ele>
        <time>2018-04-23T09:48:55Z</time>
      </trkpt>
      <trkpt lat="46.78951" lon="-2.00319">
        <ele>1</ele>
        <time>2018-04-23T09:49:55Z</time>
      </trkpt>
      <trkpt lat="46.78918" lon="-2.00311">
        <ele>1</ele>
        <time>2018-04-23T09:50:55Z</time>
      </trkpt>
      <trkpt lat="46.78867" lon="-2.00312">
        <ele>1</ele>
        <time>2018-04-23T09:51:55Z</time>
      </trkpt>
      <trkpt lat="46.78826" lon="-2.00318">
        <ele>2</ele>
        <time>2018-04-23T09:52:55Z</time>
      </trkpt>
      <trkpt lat="46.78786" lon="-2.00333">
        <ele>1</ele>
        <time>2018-04-23T09:53:55Z</time>
      </trkpt>
      <trkpt lat="46.78767" lon="-2.00344">
        <ele>1</ele>
        <time>2018-04-23T09:54:55Z</time>
      </trkpt>
      <trkpt lat="46.78712" lon="-2.00383">
        <ele>2</ele>
        <time>2018-04-23T09:55:55Z</time>
      </trkpt>
      <trkpt lat="46.78699" lon="-2.00389">
        <ele>2</ele>
        <time>2018-04-23T09:56:55Z</time>
      </trkpt>
      <trkpt lat="46.78664" lon="-2.00394">
        <ele>2</ele>
        <time>2018-04-23T09:57:55Z</time>
      </trkpt>
      <trkpt lat="46.78625" lon="-2.00396">
        <ele>1</ele>
        <time>2018-04-23T09:58:55Z</time>
      </trkpt>
      <trkpt lat="46.78604" lon="-2.00393">
        <ele>1</ele>
        <time>2018-04-23T09:59:55Z</time>
      </trkpt>
      <trkpt lat="46.78584" lon="-2.00364">
        <ele>1</ele>
        <time>2018-04-23T10:00:55Z</time>
      </trkpt>
      <trkpt lat="46.78557" lon="-2.00318">
        <ele>1</ele>
        <time>2018-04-23T10:01:55Z</time>
      </trkpt>
      <trkpt lat="46.78526" lon="-2.00285">
        <ele>2</ele>
        <time>2018-04-23T10:02:55Z</time>
      </trkpt>
      <trkpt lat="46.78514" lon="-2.00303">
        <ele>2</ele>
        <time>2018-04-23T10:03:55Z</time>
      </trkpt>
      <trkpt lat="46.78475" lon="-2.0041">
        <ele>1.8</ele>
        <time>2018-04-23T10:04:55Z</time>
      </trkpt>
      <trkpt lat="46.78462" lon="-2.0044">
        <ele>1.9</ele>
        <time>2018-04-23T10:05:55Z</time>
      </trkpt>
      <trkpt lat="46.78379" lon="-2.00576">
        <ele>1.6</ele>
        <time>2018-04-23T10:06:55Z</time>
      </trkpt>
      <trkpt lat="46.78309" lon="-2.00676">
        <ele>1</ele>
        <time>2018-04-23T10:07:55Z</time>
      </trkpt>
      <trkpt lat="46.78181" lon="-2.00901">
        <ele>2</ele>
        <time>2018-04-23T10:08:55Z</time>
      </trkpt>
      <trkpt lat="46.77978" lon="-2.01248">
        <ele>3</ele>
        <time>2018-04-23T10:09:55Z</time>
      </trkpt>
      <trkpt lat="46.77964" lon="-2.01228">
        <ele>3</ele>
        <time>2018-04-23T10:10:55Z</time>
      </trkpt>
      <trkpt lat="46.77889" lon="-2.01336">
        <ele>7</ele>
        <time>2018-04-23T10:11:55Z</time>
      </trkpt>
      <trkpt lat="46.77874" lon="-2.01371">
        <ele>7</ele>
        <time>2018-04-23T10:12:55Z</time>
      </trkpt>
      <trkpt lat="46.77869" lon="-2.01409">
        <ele>7</ele>
        <time>2018-04-23T10:13:55Z</time>
      </trkpt>
      <trkpt lat="46.77868" lon="-2.01423">
        <ele>7</ele>
        <time>2018-04-23T10:14:55Z</time>
      </trkpt>
      <trkpt lat="46.77868" lon="-2.01423">
        <ele>7</ele>
        <time>2018-04-23T10:15:55Z</time>
      </trkpt>
      <trkpt lat="46.77866" lon="-2.01465">
        <ele>7</ele>
        <time>2018-04-23T10:16:55Z</time>
      </trkpt>
      <trkpt lat="46.77851" lon="-2.01528">
        <ele>7</ele>
        <time>2018-04-23T10:17:55Z</time>
      </trkpt>
      <trkpt lat="46.77834" lon="-2.01568">
        <ele>8</ele>
        <time>2018-04-23T10:18:55Z</time>
      </trkpt>
      <trkpt lat="46.77585" lon="-2.01256">
        <ele>8</ele>
        <time>2018-04-23T10:19:55Z</time>
      </trkpt>
      <trkpt lat="46.77507" lon="-2.01185">
        <ele>12</ele>
        <time>2018-04-23T10:20:55Z</time>
      </trkpt>
      <trkpt lat="46.77314" lon="-2.01114">
        <ele>12</ele>
        <time>2018-04-23T10:21:55Z</time>
      </trkpt>
      <trkpt lat="46.77237" lon="-2.01065">
        <ele>11</ele>
        <time>2018-04-23T10:22:55Z</time>
      </trkpt>
      <trkpt lat="46.77153" lon="-2.00948">
        <ele>8</ele>
        <time>2018-04-23T10:23:55Z</time>
      </trkpt>
      <trkpt lat="46.77153" lon="-2.00948">
        <ele>8</ele>
        <time>2018-04-23T10:24:55Z</time>
      </trkpt>
      <trkpt lat="46.7705" lon="-2.00789">
        <ele>8</ele>
        <time>2018-04-23T10:25:55Z</time>
      </trkpt>
      <trkpt lat="46.76979" lon="-2.00663">
        <ele>4</ele>
        <time>2018-04-23T10:26:55Z</time>
      </trkpt>
      <trkpt lat="46.76934" lon="-2.00637">
        <ele>5</ele>
        <time>2018-04-23T10:27:55Z</time>
      </trkpt>
      <trkpt lat="46.76918" lon="-2.00622">
        <ele>5</ele>
        <time>2018-04-23T10:28:55Z</time>
      </trkpt>
      <trkpt lat="46.76894" lon="-2.00605">
        <ele>6</ele>
        <time>2018-04-23T10:29:55Z</time>
      </trkpt>
      <trkpt lat="46.76857" lon="-2.00605">
        <ele>7</ele>
        <time>2018-04-23T10:30:55Z</time>
      </trkpt>
      <trkpt lat="46.76834" lon="-2.00603">
        <ele>7</ele>
        <time>2018-04-23T10:31:55Z</time>
      </trkpt>
      <trkpt lat="46.76802" lon="-2.00592">
        <ele>7</ele>
        <time>2018-04-23T10:32:55Z</time>
      </trkpt>
      <trkpt lat="46.76777" lon="-2.00575">
        <ele>7</ele>
        <time>2018-04-23T10:33:55Z</time>
      </trkpt>
      <trkpt lat="46.76754" lon="-2.00566">
        <ele>7</ele>
        <time>2018-04-23T10:34:55Z</time>
      </trkpt>
      <trkpt lat="46.76742" lon="-2.00566">
        <ele>7</ele>
        <time>2018-04-23T10:35:55Z</time>
      </trkpt>
      <trkpt lat="46.76672" lon="-2.0055">
        <ele>9</ele>
        <time>2018-04-23T10:36:55Z</time>
      </trkpt>
      <trkpt lat="46.76647" lon="-2.00554">
        <ele>9</ele>
        <time>2018-04-23T10:37:55Z</time>
      </trkpt>
      <trkpt lat="46.76587" lon="-2.00596">
        <ele>10</ele>
        <time>2018-04-23T10:38:55Z</time>
      </trkpt>
      <trkpt lat="46.76562" lon="-2.00596">
        <ele>9</ele>
        <time>2018-04-23T10:39:55Z</time>
      </trkpt>
      <trkpt lat="46.76542" lon="-2.006">
        <ele>8</ele>
        <time>2018-04-23T10:40:55Z</time>
      </trkpt>
      <trkpt lat="46.76528" lon="-2.00611">
        <ele>9</ele>
        <time>2018-04-23T10:41:55Z</time>
      </trkpt>
      <trkpt lat="46.76488" lon="-2.00651">
        <ele>10</ele>
        <time>2018-04-23T10:42:55Z</time>
      </trkpt>
      <trkpt lat="46.76478" lon="-2.00656">
        <ele>9</ele>
        <time>2018-04-23T10:43:55Z</time>
      </trkpt>
      <trkpt lat="46.76469" lon="-2.00656">
        <ele>8</ele>
        <time>2018-04-23T10:44:55Z</time>
      </trkpt>
      <trkpt lat="46.76453" lon="-2.00649">
        <ele>7</ele>
        <time>2018-04-23T10:45:55Z</time>
      </trkpt>
      <trkpt lat="46.76395" lon="-2.00816">
        <ele>7</ele>
        <time>2018-04-23T10:46:55Z</time>
      </trkpt>
      <trkpt lat="46.76381" lon="-2.00848">
        <ele>6</ele>
        <time>2018-04-23T10:47:55Z</time>
      </trkpt>
      <trkpt lat="46.76295" lon="-2.00974">
        <ele>7</ele>
        <time>2018-04-23T10:48:55Z</time>
      </trkpt>
      <trkpt lat="46.76295" lon="-2.00974">
        <ele>7</ele>
        <time>2018-04-23T10:49:55Z</time>
      </trkpt>
      <trkpt lat="46.76187" lon="-2.01131">
        <ele>5</ele>
        <time>2018-04-23T10:50:55Z</time>
      </trkpt>
      <trkpt lat="46.76169" lon="-2.01146">
        <ele>5</ele>
        <time>2018-04-23T10:51:55Z</time>
      </trkpt>
      <trkpt lat="46.7615" lon="-2.01148">
        <ele>5</ele>
        <time>2018-04-23T10:52:55Z</time>
      </trkpt>
      <trkpt lat="46.76068" lon="-2.0113">
        <ele>5</ele>
        <time>2018-04-23T10:53:55Z</time>
      </trkpt>
      <trkpt lat="46.75851" lon="-2.0117">
        <ele>4</ele>
        <time>2018-04-23T10:54:55Z</time>
      </trkpt>
      <trkpt lat="46.75654" lon="-2.0124">
        <ele>4</ele>
        <time>2018-04-23T10:55:55Z</time>
      </trkpt>
      <trkpt lat="46.75612" lon="-2.01257">
        <ele>3</ele>
        <time>2018-04-23T10:56:55Z</time>
      </trkpt>
      <trkpt lat="46.75565" lon="-2.0128">
        <ele>3</ele>
        <time>2018-04-23T10:57:55Z</time>
      </trkpt>
      <trkpt lat="46.75428" lon="-2.01389">
        <ele>2</ele>
        <time>2018-04-23T10:58:55Z</time>
      </trkpt>
      <trkpt lat="46.75372" lon="-2.01429">
        <ele>1</ele>
        <time>2018-04-23T10:59:55Z</time>
      </trkpt>
      <trkpt lat="46.75297" lon="-2.01472">
        <ele>1</ele>
        <time>2018-04-23T11:00:55Z</time>
      </trkpt>
      <trkpt lat="46.75223" lon="-2.01512">
        <ele>2</ele>
        <time>2018-04-23T11:01:55Z</time>
      </trkpt>
      <trkpt lat="46.75173" lon="-2.01545">
        <ele>1</ele>
        <time>2018-04-23T11:02:55Z</time>
      </trkpt>
      <trkpt lat="46.7514" lon="-2.01575">
        <ele>3</ele>
        <time>2018-04-23T11:03:55Z</time>
      </trkpt>
      <trkpt lat="46.75131" lon="-2.01589">
        <ele>3</ele>
        <time>2018-04-23T11:04:55Z</time>
      </trkpt>
      <trkpt lat="46.75136" lon="-2.01597">
        <ele>3</ele>
        <time>2018-04-23T11:05:55Z</time>
      </trkpt>
      <trkpt lat="46.75137" lon="-2.01608">
        <ele>3</ele>
        <time>2018-04-23T11:06:55Z</time>
      </trkpt>
      <trkpt lat="46.75135" lon="-2.01618">
        <ele>3</ele>
        <time>2018-04-23T11:07:55Z</time>
      </trkpt>
      <trkpt lat="46.7513" lon="-2.01625">
        <ele>4</ele>
        <time>2018-04-23T11:08:55Z</time>
      </trkpt>
      <trkpt lat="46.75124" lon="-2.01628">
        <ele>4</ele>
        <time>2018-04-23T11:09:55Z</time>
      </trkpt>
      <trkpt lat="46.75116" lon="-2.01626">
        <ele>4</ele>
        <time>2018-04-23T11:10:55Z</time>
      </trkpt>
      <trkpt lat="46.75111" lon="-2.01621">
        <ele>4</ele>
        <time>2018-04-23T11:11:55Z</time>
      </trkpt>
      <trkpt lat="46.75109" lon="-2.01614">
        <ele>4</ele>
        <time>2018-04-23T11:12:55Z</time>
      </trkpt>
      <trkpt lat="46.75108" lon="-2.01606">
        <ele>4</ele>
        <time>2018-04-23T11:13:55Z</time>
      </trkpt>
      <trkpt lat="46.75111" lon="-2.01593">
        <ele>3</ele>
        <time>2018-04-23T11:14:55Z</time>
      </trkpt>
      <trkpt lat="46.75093" lon="-2.01579">
        <ele>4</ele>
        <time>2018-04-23T11:15:55Z</time>
      </trkpt>
      <trkpt lat="46.75062" lon="-2.01541">
        <ele>4</ele>
        <time>2018-04-23T11:16:55Z</time>
      </trkpt>
      <trkpt lat="46.75018" lon="-2.01479">
        <ele>4</ele>
        <time>2018-04-23T11:17:55Z</time>
      </trkpt>
      <trkpt lat="46.74971" lon="-2.01393">
        <ele>5</ele>
        <time>2018-04-23T11:18:55Z</time>
      </trkpt>
      <trkpt lat="46.74946" lon="-2.0136">
        <ele>6</ele>
        <time>2018-04-23T11:19:55Z</time>
      </trkpt>
      <trkpt lat="46.7493" lon="-2.01347">
        <ele>7</ele>
        <time>2018-04-23T11:20:55Z</time>
      </trkpt>
      <trkpt lat="46.74817" lon="-2.01285">
        <ele>7</ele>
        <time>2018-04-23T11:21:55Z</time>
      </trkpt>
      <trkpt lat="46.74817" lon="-2.01285">
        <ele>7</ele>
        <time>2018-04-23T11:22:55Z</time>
      </trkpt>
      <trkpt lat="46.74799" lon="-2.01275">
        <ele>6</ele>
        <time>2018-04-23T11:23:55Z</time>
      </trkpt>
      <trkpt lat="46.74683" lon="-2.012">
        <ele>8</ele>
        <time>2018-04-23T11:24:55Z</time>
      </trkpt>
      <trkpt lat="46.74665" lon="-2.01185">
        <ele>8</ele>
        <time>2018-04-23T11:25:55Z</time>
      </trkpt>
      <trkpt lat="46.74637" lon="-2.01158">
        <ele>8</ele>
        <time>2018-04-23T11:26:55Z</time>
      </trkpt>
      <trkpt lat="46.74527" lon="-2.01027">
        <ele>5</ele>
        <time>2018-04-23T11:27:55Z</time>
      </trkpt>
      <trkpt lat="46.74368" lon="-2.0089">
        <ele>3</ele>
        <time>2018-04-23T11:28:55Z</time>
      </trkpt>
      <trkpt lat="46.74347" lon="-2.00869">
        <ele>3</ele>
        <time>2018-04-23T11:29:55Z</time>
      </trkpt>
      <trkpt lat="46.74334" lon="-2.00852">
        <ele>3</ele>
        <time>2018-04-23T11:30:55Z</time>
      </trkpt>
      <trkpt lat="46.74263" lon="-2.00734">
        <ele>2</ele>
        <time>2018-04-23T11:31:55Z</time>
      </trkpt>
      <trkpt lat="46.74151" lon="-2.00568">
        <ele>3</ele>
        <time>2018-04-23T11:32:55Z</time>
      </trkpt>
      <trkpt lat="46.74116" lon="-2.00521">
        <ele>3</ele>
        <time>2018-04-23T11:33:55Z</time>
      </trkpt>
      <trkpt lat="46.74096" lon="-2.00482">
        <ele>3</ele>
        <time>2018-04-23T11:34:55Z</time>
      </trkpt>
      <trkpt lat="46.74072" lon="-2.00426">
        <ele>3</ele>
        <time>2018-04-23T11:35:55Z</time>
      </trkpt>
      <trkpt lat="46.74066" lon="-2.00407">
        <ele>3</ele>
        <time>2018-04-23T11:36:55Z</time>
      </trkpt>
      <trkpt lat="46.74064" lon="-2.00392">
        <ele>3</ele>
        <time>2018-04-23T11:37:55Z</time>
      </trkpt>
      <trkpt lat="46.74065" lon="-2.00361">
        <ele>3</ele>
        <time>2018-04-23T11:38:55Z</time>
      </trkpt>
      <trkpt lat="46.74081" lon="-2.00289">
        <ele>3</ele>
        <time>2018-04-23T11:39:55Z</time>
      </trkpt>
      <trkpt lat="46.74114" lon="-2.00165">
        <ele>5</ele>
        <time>2018-04-23T11:40:55Z</time>
      </trkpt>
      <trkpt lat="46.74122" lon="-2.00117">
        <ele>6</ele>
        <time>2018-04-23T11:41:55Z</time>
      </trkpt>
      <trkpt lat="46.7413" lon="-2.0006">
        <ele>6</ele>
        <time>2018-04-23T11:42:55Z</time>
      </trkpt>
      <trkpt lat="46.74138" lon="-1.9997">
        <ele>6</ele>
        <time>2018-04-23T11:43:55Z</time>
      </trkpt>
      <trkpt lat="46.74154" lon="-1.99687">
        <ele>5</ele>
        <time>2018-04-23T11:44:55Z</time>
      </trkpt>
      <trkpt lat="46.74157" lon="-1.99665">
        <ele>5</ele>
        <time>2018-04-23T11:45:55Z</time>
      </trkpt>
      <trkpt lat="46.74166" lon="-1.99622">
        <ele>6</ele>
        <time>2018-04-23T11:46:55Z</time>
      </trkpt>
      <trkpt lat="46.74202" lon="-1.99483">
        <ele>5</ele>
        <time>2018-04-23T11:47:55Z</time>
      </trkpt>
      <trkpt lat="46.7421" lon="-1.99439">
        <ele>5</ele>
        <time>2018-04-23T11:48:55Z</time>
      </trkpt>
      <trkpt lat="46.74215" lon="-1.99395">
        <ele>5</ele>
        <time>2018-04-23T11:49:55Z</time>
      </trkpt>
      <trkpt lat="46.74215" lon="-1.99367">
        <ele>5</ele>
        <time>2018-04-23T11:50:55Z</time>
      </trkpt>
      <trkpt lat="46.74211" lon="-1.99346">
        <ele>5</ele>
        <time>2018-04-23T11:51:55Z</time>
      </trkpt>
      <trkpt lat="46.74206" lon="-1.99331">
        <ele>6</ele>
        <time>2018-04-23T11:52:55Z</time>
      </trkpt>
      <trkpt lat="46.74202" lon="-1.99322">
        <ele>5</ele>
        <time>2018-04-23T11:53:55Z</time>
      </trkpt>
      <trkpt lat="46.74198" lon="-1.99325">
        <ele>6</ele>
        <time>2018-04-23T11:54:55Z</time>
      </trkpt>
      <trkpt lat="46.74189" lon="-1.99326">
        <ele>6</ele>
        <time>2018-04-23T11:55:55Z</time>
      </trkpt>
      <trkpt lat="46.74182" lon="-1.9932">
        <ele>6</ele>
        <time>2018-04-23T11:56:55Z</time>
      </trkpt>
      <trkpt lat="46.74177" lon="-1.99308">
        <ele>6</ele>
        <time>2018-04-23T11:57:55Z</time>
      </trkpt>
      <trkpt lat="46.74178" lon="-1.99296">
        <ele>5</ele>
        <time>2018-04-23T11:58:55Z</time>
      </trkpt>
      <trkpt lat="46.7418" lon="-1.9929">
        <ele>5</ele>
        <time>2018-04-23T11:59:55Z</time>
      </trkpt>
      <trkpt lat="46.74169" lon="-1.99283">
        <ele>5</ele>
        <time>2018-04-23T12:00:55Z</time>
      </trkpt>
      <trkpt lat="46.7401" lon="-1.99263">
        <ele>9</ele>
        <time>2018-04-23T12:01:55Z</time>
      </trkpt>
      <trkpt lat="46.73969" lon="-1.99248">
        <ele>9</ele>
        <time>2018-04-23T12:02:55Z</time>
      </trkpt>
      <trkpt lat="46.73937" lon="-1.99228">
        <ele>8</ele>
        <time>2018-04-23T12:03:55Z</time>
      </trkpt>
      <trkpt lat="46.73868" lon="-1.99171">
        <ele>7</ele>
        <time>2018-04-23T12:04:55Z</time>
      </trkpt>
      <trkpt lat="46.73718" lon="-1.99022">
        <ele>8</ele>
        <time>2018-04-23T12:05:55Z</time>
      </trkpt>
      <trkpt lat="46.73585" lon="-1.98893">
        <ele>6</ele>
        <time>2018-04-23T12:06:55Z</time>
      </trkpt>
      <trkpt lat="46.73585" lon="-1.98893">
        <ele>6</ele>
        <time>2018-04-23T12:07:55Z</time>
      </trkpt>
      <trkpt lat="46.7342" lon="-1.98729">
        <ele>9</ele>
        <time>2018-04-23T12:08:55Z</time>
      </trkpt>
      <trkpt lat="46.73407" lon="-1.98711">
        <ele>9</ele>
        <time>2018-04-23T12:09:55Z</time>
      </trkpt>
      <trkpt lat="46.73401" lon="-1.98697">
        <ele>9</ele>
        <time>2018-04-23T12:10:55Z</time>
      </trkpt>
      <trkpt lat="46.73394" lon="-1.98674">
        <ele>9</ele>
        <time>2018-04-23T12:11:55Z</time>
      </trkpt>
      <trkpt lat="46.73389" lon="-1.98647">
        <ele>9</ele>
        <time>2018-04-23T12:12:55Z</time>
      </trkpt>
      <trkpt lat="46.73382" lon="-1.98567">
        <ele>9</ele>
        <time>2018-04-23T12:13:55Z</time>
      </trkpt>
      <trkpt lat="46.73375" lon="-1.9854">
        <ele>9</ele>
        <time>2018-04-23T12:14:55Z</time>
      </trkpt>
      <trkpt lat="46.73366" lon="-1.98516">
        <ele>9</ele>
        <time>2018-04-23T12:15:55Z</time>
      </trkpt>
      <trkpt lat="46.73352" lon="-1.98492">
        <ele>10</ele>
        <time>2018-04-23T12:16:55Z</time>
      </trkpt>
      <trkpt lat="46.73333" lon="-1.98467">
        <ele>10</ele>
        <time>2018-04-23T12:17:55Z</time>
      </trkpt>
      <trkpt lat="46.73184" lon="-1.98324">
        <ele>12</ele>
        <time>2018-04-23T12:18:55Z</time>
      </trkpt>
      <trkpt lat="46.73163" lon="-1.98309">
        <ele>12</ele>
        <time>2018-04-23T12:19:55Z</time>
      </trkpt>
      <trkpt lat="46.72736" lon="-1.98125">
        <ele>11</ele>
        <time>2018-04-23T12:20:55Z</time>
      </trkpt>
      <trkpt lat="46.725" lon="-1.97964">
        <ele>8</ele>
        <time>2018-04-23T12:21:55Z</time>
      </trkpt>
      <trkpt lat="46.72479" lon="-1.97942">
        <ele>8</ele>
        <time>2018-04-23T12:22:55Z</time>
      </trkpt>
      <trkpt lat="46.72452" lon="-1.97911">
        <ele>8</ele>
        <time>2018-04-23T12:23:55Z</time>
      </trkpt>
      <trkpt lat="46.72408" lon="-1.97845">
        <ele>7</ele>
        <time>2018-04-23T12:24:55Z</time>
      </trkpt>
      <trkpt lat="46.72404" lon="-1.97848">
        <ele>7</ele>
        <time>2018-04-23T12:25:55Z</time>
      </trkpt>
      <trkpt lat="46.724" lon="-1.97848">
        <ele>7</ele>
        <time>2018-04-23T12:26:55Z</time>
      </trkpt>
      <trkpt lat="46.72396" lon="-1.97844">
        <ele>7</ele>
        <time>2018-04-23T12:27:55Z</time>
      </trkpt>
      <trkpt lat="46.72394" lon="-1.97837">
        <ele>7</ele>
        <time>2018-04-23T12:28:55Z</time>
      </trkpt>
      <trkpt lat="46.72395" lon="-1.9783">
        <ele>7</ele>
        <time>2018-04-23T12:29:55Z</time>
      </trkpt>
      <trkpt lat="46.72398" lon="-1.97826">
        <ele>7</ele>
        <time>2018-04-23T12:30:55Z</time>
      </trkpt>
      <trkpt lat="46.72077" lon="-1.97262">
        <ele>9</ele>
        <time>2018-04-23T12:31:55Z</time>
      </trkpt>
      <trkpt lat="46.71876" lon="-1.9688">
        <ele>15</ele>
        <time>2018-04-23T12:32:55Z</time>
      </trkpt>
      <trkpt lat="46.7187" lon="-1.96879">
        <ele>15</ele>
        <time>2018-04-23T12:33:55Z</time>
      </trkpt>
      <trkpt lat="46.71864" lon="-1.96875">
        <ele>15</ele>
        <time>2018-04-23T12:34:55Z</time>
      </trkpt>
      <trkpt lat="46.71846" lon="-1.96871">
        <ele>15</ele>
        <time>2018-04-23T12:35:55Z</time>
      </trkpt>
      <trkpt lat="46.7183" lon="-1.96883">
        <ele>15</ele>
        <time>2018-04-23T12:36:55Z</time>
      </trkpt>
      <trkpt lat="46.71826" lon="-1.96879">
        <ele>14</ele>
        <time>2018-04-23T12:37:55Z</time>
      </trkpt>
      <trkpt lat="46.71832" lon="-1.96862">
        <ele>14</ele>
        <time>2018-04-23T12:38:55Z</time>
      </trkpt>
      <trkpt lat="46.71803" lon="-1.96841">
        <ele>14</ele>
        <time>2018-04-23T12:39:55Z</time>
      </trkpt>
      <trkpt lat="46.71743" lon="-1.96818">
        <ele>13</ele>
        <time>2018-04-23T12:40:55Z</time>
      </trkpt>
      <trkpt lat="46.71702" lon="-1.96789">
        <ele>13</ele>
        <time>2018-04-23T12:41:55Z</time>
      </trkpt>
      <trkpt lat="46.71681" lon="-1.96777">
        <ele>14</ele>
        <time>2018-04-23T12:42:55Z</time>
      </trkpt>
      <trkpt lat="46.71664" lon="-1.96774">
        <ele>14</ele>
        <time>2018-04-23T12:43:55Z</time>
      </trkpt>
      <trkpt lat="46.71649" lon="-1.96774">
        <ele>14</ele>
        <time>2018-04-23T12:44:55Z</time>
      </trkpt>
      <trkpt lat="46.71589" lon="-1.9681">
        <ele>14</ele>
        <time>2018-04-23T12:45:55Z</time>
      </trkpt>
      <trkpt lat="46.71575" lon="-1.96812">
        <ele>14</ele>
        <time>2018-04-23T12:46:55Z</time>
      </trkpt>
      <trkpt lat="46.71501" lon="-1.96808">
        <ele>13</ele>
        <time>2018-04-23T12:47:55Z</time>
      </trkpt>
      <trkpt lat="46.71473" lon="-1.96803">
        <ele>13</ele>
        <time>2018-04-23T12:48:55Z</time>
      </trkpt>
      <trkpt lat="46.71406" lon="-1.96782">
        <ele>14</ele>
        <time>2018-04-23T12:49:55Z</time>
      </trkpt>
      <trkpt lat="46.71401" lon="-1.96782">
        <ele>14</ele>
        <time>2018-04-23T12:50:55Z</time>
      </trkpt>
      <trkpt lat="46.71366" lon="-1.96764">
        <ele>15</ele>
        <time>2018-04-23T12:51:55Z</time>
      </trkpt>
      <trkpt lat="46.71324" lon="-1.96755">
        <ele>17</ele>
        <time>2018-04-23T12:52:55Z</time>
      </trkpt>
      <trkpt lat="46.71286" lon="-1.96755">
        <ele>16</ele>
        <time>2018-04-23T12:53:55Z</time>
      </trkpt>
      <trkpt lat="46.7125" lon="-1.96763">
        <ele>15</ele>
        <time>2018-04-23T12:54:55Z</time>
      </trkpt>
      <trkpt lat="46.71237" lon="-1.96768">
        <ele>15</ele>
        <time>2018-04-23T12:55:55Z</time>
      </trkpt>
      <trkpt lat="46.71045" lon="-1.96769">
        <ele>13</ele>
        <time>2018-04-23T12:56:55Z</time>
      </trkpt>
      <trkpt lat="46.71025" lon="-1.96781">
        <ele>13</ele>
        <time>2018-04-23T12:57:55Z</time>
      </trkpt>
      <trkpt lat="46.71021" lon="-1.96789">
        <ele>13</ele>
        <time>2018-04-23T12:58:55Z</time>
      </trkpt>
      <trkpt lat="46.71015" lon="-1.96796">
        <ele>13</ele>
        <time>2018-04-23T12:59:55Z</time>
      </trkpt>
      <trkpt lat="46.71007" lon="-1.96797">
        <ele>13</ele>
        <time>2018-04-23T13:00:55Z</time>
      </trkpt>
      <trkpt lat="46.70999" lon="-1.96793">
        <ele>13</ele>
        <time>2018-04-23T13:01:55Z</time>
      </trkpt>
      <trkpt lat="46.70994" lon="-1.96784">
        <ele>13</ele>
        <time>2018-04-23T13:02:55Z</time>
      </trkpt>
      <trkpt lat="46.70992" lon="-1.96773">
        <ele>13</ele>
        <time>2018-04-23T13:03:55Z</time>
      </trkpt>
      <trkpt lat="46.70994" lon="-1.96761">
        <ele>13</ele>
        <time>2018-04-23T13:04:55Z</time>
      </trkpt>
      <trkpt lat="46.70985" lon="-1.96728">
        <ele>13</ele>
        <time>2018-04-23T13:05:55Z</time>
      </trkpt>
      <trkpt lat="46.7097" lon="-1.96692">
        <ele>13</ele>
        <time>2018-04-23T13:06:55Z</time>
      </trkpt>
      <trkpt lat="46.7097" lon="-1.96692">
        <ele>13</ele>
        <time>2018-04-23T13:07:55Z</time>
      </trkpt>
      <trkpt lat="46.70949" lon="-1.96643">
        <ele>13</ele>
        <time>2018-04-23T13:08:55Z</time>
      </trkpt>
      <trkpt lat="46.70942" lon="-1.96622">
        <ele>13</ele>
        <time>2018-04-23T13:09:55Z</time>
      </trkpt>
      <trkpt lat="46.70939" lon="-1.96593">
        <ele>13</ele>
        <time>2018-04-23T13:10:55Z</time>
      </trkpt>
      <trkpt lat="46.70944" lon="-1.96518">
        <ele>14</ele>
        <time>2018-04-23T13:11:55Z</time>
      </trkpt>
      <trkpt lat="46.70959" lon="-1.96471">
        <ele>14</ele>
        <time>2018-04-23T13:12:55Z</time>
      </trkpt>
      <trkpt lat="46.70972" lon="-1.96401">
        <ele>14</ele>
        <time>2018-04-23T13:13:55Z</time>
      </trkpt>
      <trkpt lat="46.70979" lon="-1.96353">
        <ele>13</ele>
        <time>2018-04-23T13:14:55Z</time>
      </trkpt>
      <trkpt lat="46.70981" lon="-1.96307">
        <ele>13</ele>
        <time>2018-04-23T13:15:55Z</time>
      </trkpt>
      <trkpt lat="46.70981" lon="-1.96248">
        <ele>13</ele>
        <time>2018-04-23T13:16:55Z</time>
      </trkpt>
      <trkpt lat="46.70978" lon="-1.96126">
        <ele>15</ele>
        <time>2018-04-23T13:17:55Z</time>
      </trkpt>
      <trkpt lat="46.70977" lon="-1.96108">
        <ele>16</ele>
        <time>2018-04-23T13:18:55Z</time>
      </trkpt>
      <trkpt lat="46.70971" lon="-1.96104">
        <ele>16</ele>
        <time>2018-04-23T13:19:55Z</time>
      </trkpt>
      <trkpt lat="46.7097" lon="-1.96097">
        <ele>16</ele>
        <time>2018-04-23T13:20:55Z</time>
      </trkpt>
      <trkpt lat="46.70835" lon="-1.96084">
        <ele>15</ele>
        <time>2018-04-23T13:21:55Z</time>
      </trkpt>
      <trkpt lat="46.70835" lon="-1.96084">
        <ele>15</ele>
        <time>2018-04-23T13:22:55Z</time>
      </trkpt>
      <trkpt lat="46.70737" lon="-1.96077">
        <ele>16</ele>
        <time>2018-04-23T13:23:55Z</time>
      </trkpt>
      <trkpt lat="46.70712" lon="-1.96092">
        <ele>16</ele>
        <time>2018-04-23T13:24:55Z</time>
      </trkpt>
      <trkpt lat="46.70703" lon="-1.96086">
        <ele>16</ele>
        <time>2018-04-23T13:25:55Z</time>
      </trkpt>
      <trkpt lat="46.70704" lon="-1.96073">
        <ele>16</ele>
        <time>2018-04-23T13:26:55Z</time>
      </trkpt>
      <trkpt lat="46.70592" lon="-1.96057">
        <ele>16</ele>
        <time>2018-04-23T13:27:55Z</time>
      </trkpt>
      <trkpt lat="46.70494" lon="-1.96027">
        <ele>15</ele>
        <time>2018-04-23T13:28:55Z</time>
      </trkpt>
      <trkpt lat="46.70461" lon="-1.96012">
        <ele>15</ele>
        <time>2018-04-23T13:29:55Z</time>
      </trkpt>
      <trkpt lat="46.70359" lon="-1.95952">
        <ele>15</ele>
        <time>2018-04-23T13:30:55Z</time>
      </trkpt>
      <trkpt lat="46.70354" lon="-1.95957">
        <ele>15</ele>
        <time>2018-04-23T13:31:55Z</time>
      </trkpt>
      <trkpt lat="46.70348" lon="-1.95957">
        <ele>15</ele>
        <time>2018-04-23T13:32:55Z</time>
      </trkpt>
      <trkpt lat="46.70344" lon="-1.9595">
        <ele>15</ele>
        <time>2018-04-23T13:33:55Z</time>
      </trkpt>
      <trkpt lat="46.70345" lon="-1.95942">
        <ele>14</ele>
        <time>2018-04-23T13:34:55Z</time>
      </trkpt>
      <trkpt lat="46.70273" lon="-1.95874">
        <ele>13</ele>
        <time>2018-04-23T13:35:55Z</time>
      </trkpt>
      <trkpt lat="46.70251" lon="-1.95847">
        <ele>12</ele>
        <time>2018-04-23T13:36:55Z</time>
      </trkpt>
      <trkpt lat="46.70227" lon="-1.95815">
        <ele>12</ele>
        <time>2018-04-23T13:37:55Z</time>
      </trkpt>
      <trkpt lat="46.70208" lon="-1.95782">
        <ele>12</ele>
        <time>2018-04-23T13:38:55Z</time>
      </trkpt>
      <trkpt lat="46.70184" lon="-1.95714">
        <ele>12</ele>
        <time>2018-04-23T13:39:55Z</time>
      </trkpt>
      <trkpt lat="46.70168" lon="-1.95656">
        <ele>12</ele>
        <time>2018-04-23T13:40:55Z</time>
      </trkpt>
      <trkpt lat="46.70165" lon="-1.95657">
        <ele>12</ele>
        <time>2018-04-23T13:41:55Z</time>
      </trkpt>
      <trkpt lat="46.70159" lon="-1.95652">
        <ele>12</ele>
        <time>2018-04-23T13:42:55Z</time>
      </trkpt>
      <trkpt lat="46.70157" lon="-1.95647">
        <ele>12</ele>
        <time>2018-04-23T13:43:55Z</time>
      </trkpt>
      <trkpt lat="46.70157" lon="-1.9564">
        <ele>12</ele>
        <time>2018-04-23T13:44:55Z</time>
      </trkpt>
      <trkpt lat="46.70161" lon="-1.9563">
        <ele>11</ele>
        <time>2018-04-23T13:45:55Z</time>
      </trkpt>
      <trkpt lat="46.70163" lon="-1.95628">
        <ele>11</ele>
        <time>2018-04-23T13:46:55Z</time>
      </trkpt>
      <trkpt lat="46.70159" lon="-1.95594">
        <ele>10</ele>
        <time>2018-04-23T13:47:55Z</time>
      </trkpt>
      <trkpt lat="46.70142" lon="-1.95491">
        <ele>9</ele>
        <time>2018-04-23T13:48:55Z</time>
      </trkpt>
      <trkpt lat="46.70137" lon="-1.95441">
        <ele>9</ele>
        <time>2018-04-23T13:49:55Z</time>
      </trkpt>
      <trkpt lat="46.70141" lon="-1.9539">
        <ele>8</ele>
        <time>2018-04-23T13:50:55Z</time>
      </trkpt>
      <trkpt lat="46.70162" lon="-1.95255">
        <ele>5</ele>
        <time>2018-04-23T13:51:55Z</time>
      </trkpt>
      <trkpt lat="46.70163" lon="-1.95206">
        <ele>6</ele>
        <time>2018-04-23T13:52:55Z</time>
      </trkpt>
      <trkpt lat="46.70163" lon="-1.95206">
        <ele>6</ele>
        <time>2018-04-23T13:53:55Z</time>
      </trkpt>
      <trkpt lat="46.70163" lon="-1.95164">
        <ele>6</ele>
        <time>2018-04-23T13:54:55Z</time>
      </trkpt>
      <trkpt lat="46.70157" lon="-1.95112">
        <ele>5</ele>
        <time>2018-04-23T13:55:55Z</time>
      </trkpt>
      <trkpt lat="46.70155" lon="-1.9506">
        <ele>5</ele>
        <time>2018-04-23T13:56:55Z</time>
      </trkpt>
      <trkpt lat="46.70069" lon="-1.95046">
        <ele>6</ele>
        <time>2018-04-23T13:57:55Z</time>
      </trkpt>
      <trkpt lat="46.70018" lon="-1.95035">
        <ele>7</ele>
        <time>2018-04-23T13:58:55Z</time>
      </trkpt>
      <trkpt lat="46.6998" lon="-1.95002">
        <ele>8</ele>
        <time>2018-04-23T13:59:55Z</time>
      </trkpt>
      <trkpt lat="46.69937" lon="-1.94954">
        <ele>8</ele>
        <time>2018-04-23T14:00:55Z</time>
      </trkpt>
      <trkpt lat="46.69917" lon="-1.94926">
        <ele>7</ele>
        <time>2018-04-23T14:01:55Z</time>
      </trkpt>
      <trkpt lat="46.69879" lon="-1.94868">
        <ele>6</ele>
        <time>2018-04-23T14:02:55Z</time>
      </trkpt>
      <trkpt lat="46.69858" lon="-1.94828">
        <ele>5</ele>
        <time>2018-04-23T14:03:55Z</time>
      </trkpt>
      <trkpt lat="46.69848" lon="-1.94804">
        <ele>5</ele>
        <time>2018-04-23T14:04:55Z</time>
      </trkpt>
      <trkpt lat="46.69848" lon="-1.94804">
        <ele>5</ele>
        <time>2018-04-23T14:05:55Z</time>
      </trkpt>
      <trkpt lat="46.6982" lon="-1.94724">
        <ele>4</ele>
        <time>2018-04-23T14:06:55Z</time>
      </trkpt>
      <trkpt lat="46.69777" lon="-1.9454">
        <ele>3</ele>
        <time>2018-04-23T14:07:55Z</time>
      </trkpt>
      <trkpt lat="46.69702" lon="-1.94314">
        <ele>4</ele>
        <time>2018-04-23T14:08:55Z</time>
      </trkpt>
      <trkpt lat="46.69653" lon="-1.94116">
        <ele>3</ele>
        <time>2018-04-23T14:09:55Z</time>
      </trkpt>
      <trkpt lat="46.69639" lon="-1.94107">
        <ele>3</ele>
        <time>2018-04-23T14:10:55Z</time>
      </trkpt>
      <trkpt lat="46.69627" lon="-1.94114">
        <ele>3</ele>
        <time>2018-04-23T14:11:55Z</time>
      </trkpt>
      <trkpt lat="46.69618" lon="-1.94116">
        <ele>3</ele>
        <time>2018-04-23T14:12:55Z</time>
      </trkpt>
      <trkpt lat="46.69611" lon="-1.94114">
        <ele>3</ele>
        <time>2018-04-23T14:13:55Z</time>
      </trkpt>
      <trkpt lat="46.69606" lon="-1.94104">
        <ele>3</ele>
        <time>2018-04-23T14:14:55Z</time>
      </trkpt>
      <trkpt lat="46.69594" lon="-1.94072">
        <ele>3</ele>
        <time>2018-04-23T14:15:55Z</time>
      </trkpt>
      <trkpt lat="46.69594" lon="-1.94068">
        <ele>3</ele>
        <time>2018-04-23T14:16:55Z</time>
      </trkpt>
      <trkpt lat="46.69585" lon="-1.94051">
        <ele>3</ele>
        <time>2018-04-23T14:17:55Z</time>
      </trkpt>
      <trkpt lat="46.69587" lon="-1.94045">
        <ele>3</ele>
        <time>2018-04-23T14:18:55Z</time>
      </trkpt>
      <trkpt lat="46.69563" lon="-1.93997">
        <ele>4</ele>
        <time>2018-04-23T14:19:55Z</time>
      </trkpt>
      <trkpt lat="46.69563" lon="-1.93997">
        <ele>4</ele>
        <time>2018-04-23T14:20:55Z</time>
      </trkpt>
      <trkpt lat="46.69548" lon="-1.93967">
        <ele>4</ele>
        <time>2018-04-23T14:21:55Z</time>
      </trkpt>
      <trkpt lat="46.69529" lon="-1.93916">
        <ele>4</ele>
        <time>2018-04-23T14:22:55Z</time>
      </trkpt>
      <trkpt lat="46.69466" lon="-1.93789">
        <ele>3</ele>
        <time>2018-04-23T14:23:55Z</time>
      </trkpt>
      <trkpt lat="46.69447" lon="-1.93743">
        <ele>3</ele>
        <time>2018-04-23T14:24:55Z</time>
      </trkpt>
      <trkpt lat="46.6944" lon="-1.93721">
        <ele>3</ele>
        <time>2018-04-23T14:25:55Z</time>
      </trkpt>
      <trkpt lat="46.69423" lon="-1.93652">
        <ele>3</ele>
        <time>2018-04-23T14:26:55Z</time>
      </trkpt>
      <trkpt lat="46.69422" lon="-1.9364">
        <ele>2</ele>
        <time>2018-04-23T14:27:55Z</time>
      </trkpt>
      <trkpt lat="46.69423" lon="-1.93624">
        <ele>2</ele>
        <time>2018-04-23T14:28:55Z</time>
      </trkpt>
      <trkpt lat="46.69425" lon="-1.93616">
        <ele>2</ele>
        <time>2018-04-23T14:29:55Z</time>
      </trkpt>
      <trkpt lat="46.69434" lon="-1.93603">
        <ele>2</ele>
        <time>2018-04-23T14:30:55Z</time>
      </trkpt>
      <trkpt lat="46.69444" lon="-1.93596">
        <ele>2</ele>
        <time>2018-04-23T14:31:55Z</time>
      </trkpt>
      <trkpt lat="46.69508" lon="-1.93577">
        <ele>3</ele>
        <time>2018-04-23T14:32:55Z</time>
      </trkpt>
      <trkpt lat="46.69518" lon="-1.93578">
        <ele>3</ele>
        <time>2018-04-23T14:33:55Z</time>
      </trkpt>
      <trkpt lat="46.69553" lon="-1.93592">
        <ele>4</ele>
        <time>2018-04-23T14:34:55Z</time>
      </trkpt>
      <trkpt lat="46.69571" lon="-1.93591">
        <ele>4</ele>
        <time>2018-04-23T14:35:55Z</time>
      </trkpt>
      <trkpt lat="46.69594" lon="-1.93577">
        <ele>4</ele>
        <time>2018-04-23T14:36:55Z</time>
      </trkpt>
      <trkpt lat="46.69598" lon="-1.93578">
        <ele>4</ele>
        <time>2018-04-23T14:37:55Z</time>
      </trkpt>
      <trkpt lat="46.69602" lon="-1.93583">
        <ele>4</ele>
        <time>2018-04-23T14:38:55Z</time>
      </trkpt>
      <trkpt lat="46.69606" lon="-1.93573">
        <ele>4</ele>
        <time>2018-04-23T14:39:55Z</time>
      </trkpt>
      <trkpt lat="46.69608" lon="-1.93551">
        <ele>4</ele>
        <time>2018-04-23T14:40:55Z</time>
      </trkpt>
      <trkpt lat="46.69606" lon="-1.93547">
        <ele>4</ele>
        <time>2018-04-23T14:41:55Z</time>
      </trkpt>
      <trkpt lat="46.69623" lon="-1.93448">
        <ele>4</ele>
        <time>2018-04-23T14:42:55Z</time>
      </trkpt>
      <trkpt lat="46.69627" lon="-1.93443">
        <ele>4</ele>
        <time>2018-04-23T14:43:55Z</time>
      </trkpt>
      <trkpt lat="46.69624" lon="-1.93436">
        <ele>4</ele>
        <time>2018-04-23T14:44:55Z</time>
      </trkpt>
      <trkpt lat="46.69619" lon="-1.93434">
        <ele>4</ele>
        <time>2018-04-23T14:45:55Z</time>
      </trkpt>
      <trkpt lat="46.69616" lon="-1.93426">
        <ele>4</ele>
        <time>2018-04-23T14:46:55Z</time>
      </trkpt>
      <trkpt lat="46.69619" lon="-1.93416">
        <ele>4</ele>
        <time>2018-04-23T14:47:55Z</time>
      </trkpt>
      <trkpt lat="46.69624" lon="-1.93414">
        <ele>5</ele>
        <time>2018-04-23T14:48:55Z</time>
      </trkpt>
      <trkpt lat="46.69627" lon="-1.93415">
        <ele>5</ele>
        <time>2018-04-23T14:49:55Z</time>
      </trkpt>
      <trkpt lat="46.69631" lon="-1.93425">
        <ele>4</ele>
        <time>2018-04-23T14:50:55Z</time>
      </trkpt>
      <trkpt lat="46.69667" lon="-1.93431">
        <ele>5</ele>
        <time>2018-04-23T14:51:55Z</time>
      </trkpt>
      <trkpt lat="46.69684" lon="-1.93436">
        <ele>5</ele>
        <time>2018-04-23T14:52:55Z</time>
      </trkpt>
      <trkpt lat="46.69709" lon="-1.93437">
        <ele>5</ele>
        <time>2018-04-23T14:53:55Z</time>
      </trkpt>
      <trkpt lat="46.69777" lon="-1.93421">
        <ele>5</ele>
        <time>2018-04-23T14:54:55Z</time>
      </trkpt>
      <trkpt lat="46.69784" lon="-1.93422">
        <ele>5</ele>
        <time>2018-04-23T14:55:55Z</time>
      </trkpt>
      <trkpt lat="46.69787" lon="-1.93417">
        <ele>5</ele>
        <time>2018-04-23T14:56:55Z</time>
      </trkpt>
      <trkpt lat="46.69791" lon="-1.93418">
        <ele>5</ele>
        <time>2018-04-23T14:57:55Z</time>
      </trkpt>
      <trkpt lat="46.69793" lon="-1.9342">
        <ele>5</ele>
        <time>2018-04-23T14:58:55Z</time>
      </trkpt>
      <trkpt lat="46.69795" lon="-1.93419">
        <ele>5</ele>
        <time>2018-04-23T14:59:55Z</time>
      </trkpt>
    </trkseg>
  </trk>
</gpx>